<?xml version="1.0" encoding="UTF-8" standalone="no" ?><gpx xmlns="http://www.topografix.com/GPX/1/1" xmlns:gpxx="http://www.garmin.com/xmlschemas/GpxExtensions/v3" xmlns:wptx1="http://www.garmin.com/xmlschemas/WaypointExtension/v1" xmlns:gpxtpx="http://www.garmin.com/xmlschemas/TrackPointExtension/v1" creator="GuideVTT.com" version="1.1" xmlns:xsi="http://www.w3.org/2001/XMLSchema-instance" xsi:schemaLocation="http://www.topografix.com/GPX/1/1 http://www.topografix.com/GPX/1/1/gpx.xsd http://www.garmin.com/xmlschemas/GpxExtensions/v3 http://www8.garmin.com/xmlschemas/GpxExtensionsv3.xsd http://www.garmin.com/xmlschemas/WaypointExtension/v1 http://www8.garmin.com/xmlschemas/WaypointExtensionv1.xsd http://www.garmin.com/xmlschemas/TrackPointExtension/v1 http://www.garmin.com/xmlschemas/TrackPointExtensionv1.xsd">
<metadata><link href="http://www.garmin.com"><text>Garmin International</text></link><time>2013-06-22T15:13:50Z</time></metadata>
<trk><name>rp_2014_08.gpx</name><extensions><gpxx:TrackExtension><gpxx:DisplayColor>Cyan</gpxx:DisplayColor></gpxx:TrackExtension></extensions><trkseg>
<trkpt lat="46.2255567033" lon="7.2801615950"><ele></ele><time>2014-5-28T4:17:6Z</time></trkpt>
<trkpt lat="46.2255312223" lon="7.2801065259"><ele></ele><time>2014-5-28T4:17:9Z</time></trkpt>
<trkpt lat="46.2256060727" lon="7.2798795439"><ele></ele><time>2014-5-28T4:17:12Z</time></trkpt>
<trkpt lat="46.2257164624" lon="7.2797917016"><ele></ele><time>2014-5-28T4:17:15Z</time></trkpt>
<trkpt lat="46.2260001060" lon="7.2798899375"><ele></ele><time>2014-5-28T4:17:18Z</time></trkpt>
<trkpt lat="46.2262971606" lon="7.2800289094"><ele></ele><time>2014-5-28T4:17:21Z</time></trkpt>
<trkpt lat="46.2266201992" lon="7.2801916860"><ele></ele><time>2014-5-28T4:17:24Z</time></trkpt>
<trkpt lat="46.2268523779" lon="7.2803338431"><ele></ele><time>2014-5-28T4:17:27Z</time></trkpt>
<trkpt lat="46.2271328364" lon="7.2804588173"><ele></ele><time>2014-5-28T4:17:30Z</time></trkpt>
<trkpt lat="46.2271835469" lon="7.2808448039"><ele></ele><time>2014-5-28T4:17:33Z</time></trkpt>
<trkpt lat="46.2273055036" lon="7.2813905496"><ele></ele><time>2014-5-28T4:17:36Z</time></trkpt>
<trkpt lat="46.2273835391" lon="7.2815754544"><ele></ele><time>2014-5-28T4:17:39Z</time></trkpt>
<trkpt lat="46.2274678610" lon="7.2815224808"><ele></ele><time>2014-5-28T4:17:42Z</time></trkpt>
<trkpt lat="46.2275940087" lon="7.2810293734"><ele></ele><time>2014-5-28T4:17:45Z</time></trkpt>
<trkpt lat="46.2276862096" lon="7.2806646768"><ele></ele><time>2014-5-28T4:17:48Z</time></trkpt>
<trkpt lat="46.2277290411" lon="7.2805148084"><ele></ele><time>2014-5-28T4:17:51Z</time></trkpt>
<trkpt lat="46.2277195696" lon="7.2801569011"><ele></ele><time>2014-5-28T4:17:54Z</time></trkpt>
<trkpt lat="46.2276358344" lon="7.2798284143"><ele></ele><time>2014-5-28T4:17:57Z</time></trkpt>
<trkpt lat="46.2276899815" lon="7.2795441840"><ele></ele><time>2014-5-28T4:18:0Z</time></trkpt>
<trkpt lat="46.2277889717" lon="7.2792472970"><ele></ele><time>2014-5-28T4:18:3Z</time></trkpt>
<trkpt lat="46.2278929912" lon="7.2789735440"><ele></ele><time>2014-5-28T4:18:6Z</time></trkpt>
<trkpt lat="46.2279966753" lon="7.2786404472"><ele></ele><time>2014-5-28T4:18:9Z</time></trkpt>
<trkpt lat="46.2279714458" lon="7.2783756629"><ele></ele><time>2014-5-28T4:18:12Z</time></trkpt>
<trkpt lat="46.2278066576" lon="7.2779736668"><ele></ele><time>2014-5-28T4:18:15Z</time></trkpt>
<trkpt lat="46.2277198210" lon="7.2776165977"><ele></ele><time>2014-5-28T4:18:18Z</time></trkpt>
<trkpt lat="46.2276043184" lon="7.2771727759"><ele></ele><time>2014-5-28T4:18:21Z</time></trkpt>
<trkpt lat="46.2272367720" lon="7.2765464801"><ele></ele><time>2014-5-28T4:18:24Z</time></trkpt>
<trkpt lat="46.2267893460" lon="7.2758377064"><ele></ele><time>2014-5-28T4:18:27Z</time></trkpt>
<trkpt lat="46.2267517112" lon="7.2757591680"><ele></ele><time>2014-5-28T4:18:30Z</time></trkpt>
<trkpt lat="46.2266699038" lon="7.2754883487"><ele></ele><time>2014-5-28T4:18:33Z</time></trkpt>
<trkpt lat="46.2265261542" lon="7.2751269210"><ele></ele><time>2014-5-28T4:18:36Z</time></trkpt>
<trkpt lat="46.2260549236" lon="7.2743050754"><ele></ele><time>2014-5-28T4:18:39Z</time></trkpt>
<trkpt lat="46.2259698473" lon="7.2738551348"><ele></ele><time>2014-5-28T4:18:42Z</time></trkpt>
<trkpt lat="46.2258144468" lon="7.2732743528"><ele></ele><time>2014-5-28T4:18:45Z</time></trkpt>
<trkpt lat="46.2257664185" lon="7.2727076523"><ele></ele><time>2014-5-28T4:18:48Z</time></trkpt>
<trkpt lat="46.2257794105" lon="7.2719622497"><ele></ele><time>2014-5-28T4:18:51Z</time></trkpt>
<trkpt lat="46.2259252556" lon="7.2716778517"><ele></ele><time>2014-5-28T4:18:54Z</time></trkpt>
<trkpt lat="46.2261297740" lon="7.2718585655"><ele></ele><time>2014-5-28T4:18:57Z</time></trkpt>
<trkpt lat="46.2263990846" lon="7.2721995413"><ele></ele><time>2014-5-28T4:19:0Z</time></trkpt>
<trkpt lat="46.2266633660" lon="7.2725715302"><ele></ele><time>2014-5-28T4:19:3Z</time></trkpt>
<trkpt lat="46.2267786171" lon="7.2726194747"><ele></ele><time>2014-5-28T4:19:6Z</time></trkpt>
<trkpt lat="46.2267517112" lon="7.2723620664"><ele></ele><time>2014-5-28T4:19:9Z</time></trkpt>
<trkpt lat="46.2265173532" lon="7.2718148958"><ele></ele><time>2014-5-28T4:19:12Z</time></trkpt>
<trkpt lat="46.2262941431" lon="7.2713899333"><ele></ele><time>2014-5-28T4:19:15Z</time></trkpt>
<trkpt lat="46.2260585278" lon="7.2709745262"><ele></ele><time>2014-5-28T4:19:18Z</time></trkpt>
<trkpt lat="46.2259202264" lon="7.2705167904"><ele></ele><time>2014-5-28T4:19:21Z</time></trkpt>
<trkpt lat="46.2257002015" lon="7.2700446378"><ele></ele><time>2014-5-28T4:19:24Z</time></trkpt>
<trkpt lat="46.2255051546" lon="7.2695837170"><ele></ele><time>2014-5-28T4:19:27Z</time></trkpt>
<trkpt lat="46.2252885662" lon="7.2691348661"><ele></ele><time>2014-5-28T4:19:30Z</time></trkpt>
<trkpt lat="46.2251125462" lon="7.2686524875"><ele></ele><time>2014-5-28T4:19:33Z</time></trkpt>
<trkpt lat="46.2250013184" lon="7.2683095839"><ele></ele><time>2014-5-28T4:19:36Z</time></trkpt>
<trkpt lat="46.2248339318" lon="7.2678923327"><ele></ele><time>2014-5-28T4:19:39Z</time></trkpt>
<trkpt lat="46.2246644497" lon="7.2675310727"><ele></ele><time>2014-5-28T4:19:42Z</time></trkpt>
<trkpt lat="46.2244500406" lon="7.2671788651"><ele></ele><time>2014-5-28T4:19:45Z</time></trkpt>
<trkpt lat="46.2242093123" lon="7.2667726781"><ele></ele><time>2014-5-28T4:19:48Z</time></trkpt>
<trkpt lat="46.2241228949" lon="7.2663589474"><ele></ele><time>2014-5-28T4:19:51Z</time></trkpt>
<trkpt lat="46.2241303548" lon="7.2663417645"><ele></ele><time>2014-5-28T4:19:54Z</time></trkpt>
<trkpt lat="46.2241655588" lon="7.2663387470"><ele></ele><time>2014-5-28T4:19:57Z</time></trkpt>
<trkpt lat="46.2241891958" lon="7.2663737833"><ele></ele><time>2014-5-28T4:20:0Z</time></trkpt>
<trkpt lat="46.2243425846" lon="7.2664432693"><ele></ele><time>2014-5-28T4:20:3Z</time></trkpt>
<trkpt lat="46.2244430836" lon="7.2664800659"><ele></ele><time>2014-5-28T4:20:6Z</time></trkpt>
<trkpt lat="46.2244594283" lon="7.2664949019"><ele></ele><time>2014-5-28T4:20:9Z</time></trkpt>
<trkpt lat="46.2245534733" lon="7.2665346321"><ele></ele><time>2014-5-28T4:20:12Z</time></trkpt>
<trkpt lat="46.2245965563" lon="7.2665636335"><ele></ele><time>2014-5-28T4:20:15Z</time></trkpt>
<trkpt lat="46.2247429043" lon="7.2666587681"><ele></ele><time>2014-5-28T4:20:18Z</time></trkpt>
<trkpt lat="46.2247891724" lon="7.2667102329"><ele></ele><time>2014-5-28T4:20:21Z</time></trkpt>
<trkpt lat="46.2248309143" lon="7.2666300181"><ele></ele><time>2014-5-28T4:20:24Z</time></trkpt>
<trkpt lat="46.2249028310" lon="7.2662799060"><ele></ele><time>2014-5-28T4:20:27Z</time></trkpt>
<trkpt lat="46.2250023242" lon="7.2660529241"><ele></ele><time>2014-5-28T4:20:30Z</time></trkpt>
<trkpt lat="46.2250656914" lon="7.2659633216"><ele></ele><time>2014-5-28T4:20:33Z</time></trkpt>
<trkpt lat="46.2250339240" lon="7.2657300532"><ele></ele><time>2014-5-28T4:20:36Z</time></trkpt>
<trkpt lat="46.2249170803" lon="7.2655336652"><ele></ele><time>2014-5-28T4:20:39Z</time></trkpt>
<trkpt lat="46.2247548066" lon="7.2653261293"><ele></ele><time>2014-5-28T4:20:42Z</time></trkpt>
<trkpt lat="46.2247397192" lon="7.2652884107"><ele></ele><time>2014-5-28T4:20:45Z</time></trkpt>
<trkpt lat="46.2248448282" lon="7.2652549669"><ele></ele><time>2014-5-28T4:20:48Z</time></trkpt>
<trkpt lat="46.2249604147" lon="7.2653159872"><ele></ele><time>2014-5-28T4:20:51Z</time></trkpt>
<trkpt lat="46.2250256259" lon="7.2652871534"><ele></ele><time>2014-5-28T4:20:54Z</time></trkpt>
<trkpt lat="46.2250371929" lon="7.2652371973"><ele></ele><time>2014-5-28T4:20:57Z</time></trkpt>
<trkpt lat="46.2250813656" lon="7.2651312500"><ele></ele><time>2014-5-28T4:21:0Z</time></trkpt>
<trkpt lat="46.2251459900" lon="7.2649636958"><ele></ele><time>2014-5-28T4:21:3Z</time></trkpt>
<trkpt lat="46.2252219301" lon="7.2648189403"><ele></ele><time>2014-5-28T4:21:6Z</time></trkpt>
<trkpt lat="46.2252885662" lon="7.2647552378"><ele></ele><time>2014-5-28T4:21:9Z</time></trkpt>
<trkpt lat="46.2252554577" lon="7.2645893600"><ele></ele><time>2014-5-28T4:21:12Z</time></trkpt>
<trkpt lat="46.2252505962" lon="7.2645637114"><ele></ele><time>2014-5-28T4:21:15Z</time></trkpt>
<trkpt lat="46.2252447288" lon="7.2644639667"><ele></ele><time>2014-5-28T4:21:18Z</time></trkpt>
<trkpt lat="46.2253147177" lon="7.2643963248"><ele></ele><time>2014-5-28T4:21:21Z</time></trkpt>
<trkpt lat="46.2255848665" lon="7.2646489553"><ele></ele><time>2014-5-28T4:21:24Z</time></trkpt>
<trkpt lat="46.2257613055" lon="7.2650406417"><ele></ele><time>2014-5-28T4:21:27Z</time></trkpt>
<trkpt lat="46.2259357329" lon="7.2653952800"><ele></ele><time>2014-5-28T4:21:30Z</time></trkpt>
<trkpt lat="46.2261481304" lon="7.2657884751"><ele></ele><time>2014-5-28T4:21:33Z</time></trkpt>
<trkpt lat="46.2262697518" lon="7.2661983501"><ele></ele><time>2014-5-28T4:21:36Z</time></trkpt>
<trkpt lat="46.2265309319" lon="7.2666000947"><ele></ele><time>2014-5-28T4:21:39Z</time></trkpt>
<trkpt lat="46.2266131584" lon="7.2670808807"><ele></ele><time>2014-5-28T4:21:42Z</time></trkpt>
<trkpt lat="46.2269188464" lon="7.2675016522"><ele></ele><time>2014-5-28T4:21:45Z</time></trkpt>
<trkpt lat="46.2270837184" lon="7.2680041473"><ele></ele><time>2014-5-28T4:21:48Z</time></trkpt>
<trkpt lat="46.2274041586" lon="7.2684666608"><ele></ele><time>2014-5-28T4:21:51Z</time></trkpt>
<trkpt lat="46.2277210783" lon="7.2688931320"><ele></ele><time>2014-5-28T4:21:54Z</time></trkpt>
<trkpt lat="46.2279699370" lon="7.2692113928"><ele></ele><time>2014-5-28T4:21:57Z</time></trkpt>
<trkpt lat="46.2282389961" lon="7.2697173245"><ele></ele><time>2014-5-28T4:22:0Z</time></trkpt>
<trkpt lat="46.2285736017" lon="7.2701613139"><ele></ele><time>2014-5-28T4:22:3Z</time></trkpt>
<trkpt lat="46.2289368734" lon="7.2706980910"><ele></ele><time>2014-5-28T4:22:6Z</time></trkpt>
<trkpt lat="46.2291489355" lon="7.2714284062"><ele></ele><time>2014-5-28T4:22:9Z</time></trkpt>
<trkpt lat="46.2295300607" lon="7.2718270496"><ele></ele><time>2014-5-28T4:22:12Z</time></trkpt>
<trkpt lat="46.2299464736" lon="7.2720189113"><ele></ele><time>2014-5-28T4:22:15Z</time></trkpt>
<trkpt lat="46.2302251719" lon="7.2723572887"><ele></ele><time>2014-5-28T4:22:18Z</time></trkpt>
<trkpt lat="46.2305268366" lon="7.2728060558"><ele></ele><time>2014-5-28T4:22:21Z</time></trkpt>
<trkpt lat="46.2306474522" lon="7.2731100675"><ele></ele><time>2014-5-28T4:22:24Z</time></trkpt>
<trkpt lat="46.2307028566" lon="7.2730792221"><ele></ele><time>2014-5-28T4:22:27Z</time></trkpt>
<trkpt lat="46.2306292634" lon="7.2727089096"><ele></ele><time>2014-5-28T4:22:30Z</time></trkpt>
<trkpt lat="46.2305025291" lon="7.2723114397"><ele></ele><time>2014-5-28T4:22:33Z</time></trkpt>
<trkpt lat="46.2303258386" lon="7.2719925083"><ele></ele><time>2014-5-28T4:22:36Z</time></trkpt>
<trkpt lat="46.2300721183" lon="7.2715964634"><ele></ele><time>2014-5-28T4:22:39Z</time></trkpt>
<trkpt lat="46.2298973557" lon="7.2712635342"><ele></ele><time>2014-5-28T4:22:42Z</time></trkpt>
<trkpt lat="46.2297783326" lon="7.2709795553"><ele></ele><time>2014-5-28T4:22:45Z</time></trkpt>
<trkpt lat="46.2296367623" lon="7.2706511524"><ele></ele><time>2014-5-28T4:22:48Z</time></trkpt>
<trkpt lat="46.2295787595" lon="7.2702649981"><ele></ele><time>2014-5-28T4:22:51Z</time></trkpt>
<trkpt lat="46.2294292264" lon="7.2698315699"><ele></ele><time>2014-5-28T4:22:54Z</time></trkpt>
<trkpt lat="46.2292823754" lon="7.2694309987"><ele></ele><time>2014-5-28T4:22:57Z</time></trkpt>
<trkpt lat="46.2291798647" lon="7.2690305952"><ele></ele><time>2014-5-28T4:23:0Z</time></trkpt>
<trkpt lat="46.2290229555" lon="7.2685958259"><ele></ele><time>2014-5-28T4:23:3Z</time></trkpt>
<trkpt lat="46.2288283277" lon="7.2681898065"><ele></ele><time>2014-5-28T4:23:6Z</time></trkpt>
<trkpt lat="46.2286125775" lon="7.2678178176"><ele></ele><time>2014-5-28T4:23:9Z</time></trkpt>
<trkpt lat="46.2284362223" lon="7.2674933542"><ele></ele><time>2014-5-28T4:23:12Z</time></trkpt>
<trkpt lat="46.2283408362" lon="7.2670258116"><ele></ele><time>2014-5-28T4:23:15Z</time></trkpt>
<trkpt lat="46.2283441890" lon="7.2666835785"><ele></ele><time>2014-5-28T4:23:18Z</time></trkpt>
<trkpt lat="46.2284071371" lon="7.2666357178"><ele></ele><time>2014-5-28T4:23:21Z</time></trkpt>
<trkpt lat="46.2284456100" lon="7.2665518150"><ele></ele><time>2014-5-28T4:23:24Z</time></trkpt>
<trkpt lat="46.2285252381" lon="7.2664376535"><ele></ele><time>2014-5-28T4:23:27Z</time></trkpt>
<trkpt lat="46.2286423333" lon="7.2662882041"><ele></ele><time>2014-5-28T4:23:30Z</time></trkpt>
<trkpt lat="46.2286639586" lon="7.2662580293"><ele></ele><time>2014-5-28T4:23:33Z</time></trkpt>
<trkpt lat="46.2287517171" lon="7.2661391739"><ele></ele><time>2014-5-28T4:23:36Z</time></trkpt>
<trkpt lat="46.2287735939" lon="7.2660807520"><ele></ele><time>2014-5-28T4:23:39Z</time></trkpt>
<trkpt lat="46.2288262323" lon="7.2660468053"><ele></ele><time>2014-5-28T4:23:42Z</time></trkpt>
<trkpt lat="46.2288655434" lon="7.2660687659"><ele></ele><time>2014-5-28T4:23:45Z</time></trkpt>
<trkpt lat="46.2288863305" lon="7.2664472926"><ele></ele><time>2014-5-28T4:23:48Z</time></trkpt>
<trkpt lat="46.2289271504" lon="7.2667306010"><ele></ele><time>2014-5-28T4:23:51Z</time></trkpt>
<trkpt lat="46.2290299125" lon="7.2667133342"><ele></ele><time>2014-5-28T4:23:54Z</time></trkpt>
<trkpt lat="46.2292008195" lon="7.2664502263"><ele></ele><time>2014-5-28T4:23:57Z</time></trkpt>
<trkpt lat="46.2292357720" lon="7.2663532477"><ele></ele><time>2014-5-28T4:24:0Z</time></trkpt>
<trkpt lat="46.2293372769" lon="7.2662502341"><ele></ele><time>2014-5-28T4:24:3Z</time></trkpt>
<trkpt lat="46.2293436471" lon="7.2662664112"><ele></ele><time>2014-5-28T4:24:6Z</time></trkpt>
<trkpt lat="46.2294875644" lon="7.2665395774"><ele></ele><time>2014-5-28T4:24:9Z</time></trkpt>
<trkpt lat="46.2295764126" lon="7.2666777950"><ele></ele><time>2014-5-28T4:24:12Z</time></trkpt>
<trkpt lat="46.2296932563" lon="7.2667486221"><ele></ele><time>2014-5-28T4:24:15Z</time></trkpt>
<trkpt lat="46.2297276221" lon="7.2664466221"><ele></ele><time>2014-5-28T4:24:18Z</time></trkpt>
<trkpt lat="46.2297549471" lon="7.2663056385"><ele></ele><time>2014-5-28T4:24:21Z</time></trkpt>
<trkpt lat="46.2298312224" lon="7.2662892938"><ele></ele><time>2014-5-28T4:24:24Z</time></trkpt>
<trkpt lat="46.2300298735" lon="7.2665665671"><ele></ele><time>2014-5-28T4:24:27Z</time></trkpt>
<trkpt lat="46.2300987728" lon="7.2665877733"><ele></ele><time>2014-5-28T4:24:30Z</time></trkpt>
<trkpt lat="46.2301456276" lon="7.2666345444"><ele></ele><time>2014-5-28T4:24:33Z</time></trkpt>
<trkpt lat="46.2303193845" lon="7.2668197006"><ele></ele><time>2014-5-28T4:24:36Z</time></trkpt>
<trkpt lat="46.2304662354" lon="7.2671805415"><ele></ele><time>2014-5-28T4:24:39Z</time></trkpt>
<trkpt lat="46.2306002621" lon="7.2674459964"><ele></ele><time>2014-5-28T4:24:42Z</time></trkpt>
<trkpt lat="46.2307216320" lon="7.2677627485"><ele></ele><time>2014-5-28T4:24:45Z</time></trkpt>
<trkpt lat="46.2308346201" lon="7.2680727113"><ele></ele><time>2014-5-28T4:24:48Z</time></trkpt>
<trkpt lat="46.2309429981" lon="7.2684020363"><ele></ele><time>2014-5-28T4:24:51Z</time></trkpt>
<trkpt lat="46.2311227899" lon="7.2687089816"><ele></ele><time>2014-5-28T4:24:54Z</time></trkpt>
<trkpt lat="46.2313144840" lon="7.2689854167"><ele></ele><time>2014-5-28T4:24:57Z</time></trkpt>
<trkpt lat="46.2314295676" lon="7.2691019252"><ele></ele><time>2014-5-28T4:25:0Z</time></trkpt>
<trkpt lat="46.2315454055" lon="7.2690789588"><ele></ele><time>2014-5-28T4:25:3Z</time></trkpt>
<trkpt lat="46.2315464951" lon="7.2690579202"><ele></ele><time>2014-5-28T4:25:6Z</time></trkpt>
<trkpt lat="46.2315792684" lon="7.2686317004"><ele></ele><time>2014-5-28T4:25:9Z</time></trkpt>
<trkpt lat="46.2315830402" lon="7.2682975978"><ele></ele><time>2014-5-28T4:25:12Z</time></trkpt>
<trkpt lat="46.2316079345" lon="7.2681802511"><ele></ele><time>2014-5-28T4:25:15Z</time></trkpt>
<trkpt lat="46.2315919250" lon="7.2677005548"><ele></ele><time>2014-5-28T4:25:18Z</time></trkpt>
<trkpt lat="46.2315331679" lon="7.2672070283"><ele></ele><time>2014-5-28T4:25:21Z</time></trkpt>
<trkpt lat="46.2314470857" lon="7.2667871788"><ele></ele><time>2014-5-28T4:25:24Z</time></trkpt>
<trkpt lat="46.2314184196" lon="7.2662570234"><ele></ele><time>2014-5-28T4:25:27Z</time></trkpt>
<trkpt lat="46.2313562259" lon="7.2659316380"><ele></ele><time>2014-5-28T4:25:30Z</time></trkpt>
<trkpt lat="46.2314336747" lon="7.2658753116"><ele></ele><time>2014-5-28T4:25:33Z</time></trkpt>
<trkpt lat="46.2316539511" lon="7.2662998550"><ele></ele><time>2014-5-28T4:25:36Z</time></trkpt>
<trkpt lat="46.2319514249" lon="7.2666607797"><ele></ele><time>2014-5-28T4:25:39Z</time></trkpt>
<trkpt lat="46.2321701925" lon="7.2669742629"><ele></ele><time>2014-5-28T4:25:42Z</time></trkpt>
<trkpt lat="46.2323462125" lon="7.2671651188"><ele></ele><time>2014-5-28T4:25:45Z</time></trkpt>
<trkpt lat="46.2324376591" lon="7.2672426514"><ele></ele><time>2014-5-28T4:25:48Z</time></trkpt>
<trkpt lat="46.2326073088" lon="7.2673565615"><ele></ele><time>2014-5-28T4:25:51Z</time></trkpt>
<trkpt lat="46.2327654753" lon="7.2674641851"><ele></ele><time>2014-5-28T4:25:54Z</time></trkpt>
<trkpt lat="46.2329122424" lon="7.2676190827"><ele></ele><time>2014-5-28T4:25:57Z</time></trkpt>
<trkpt lat="46.2330398988" lon="7.2678059153"><ele></ele><time>2014-5-28T4:26:0Z</time></trkpt>
<trkpt lat="46.2332530506" lon="7.2681356594"><ele></ele><time>2014-5-28T4:26:3Z</time></trkpt>
<trkpt lat="46.2335213553" lon="7.2685636394"><ele></ele><time>2014-5-28T4:26:6Z</time></trkpt>
<trkpt lat="46.2338158116" lon="7.2689710837"><ele></ele><time>2014-5-28T4:26:9Z</time></trkpt>
<trkpt lat="46.2341595534" lon="7.2692937031"><ele></ele><time>2014-5-28T4:26:12Z</time></trkpt>
<trkpt lat="46.2345111743" lon="7.2695250437"><ele></ele><time>2014-5-28T4:26:15Z</time></trkpt>
<trkpt lat="46.2349237315" lon="7.2697294783"><ele></ele><time>2014-5-28T4:26:18Z</time></trkpt>
<trkpt lat="46.2352571636" lon="7.2699008044"><ele></ele><time>2014-5-28T4:26:21Z</time></trkpt>
<trkpt lat="46.2355385441" lon="7.2701334860"><ele></ele><time>2014-5-28T4:26:24Z</time></trkpt>
<trkpt lat="46.2358335871" lon="7.2703905590"><ele></ele><time>2014-5-28T4:26:27Z</time></trkpt>
<trkpt lat="46.2359372713" lon="7.2705348115"><ele></ele><time>2014-5-28T4:26:30Z</time></trkpt>
<trkpt lat="46.2361034006" lon="7.2708613705"><ele></ele><time>2014-5-28T4:26:33Z</time></trkpt>
<trkpt lat="46.2363722920" lon="7.2712229658"><ele></ele><time>2014-5-28T4:26:36Z</time></trkpt>
<trkpt lat="46.2364012096" lon="7.2712422442"><ele></ele><time>2014-5-28T4:26:39Z</time></trkpt>
<trkpt lat="46.2364595477" lon="7.2711915337"><ele></ele><time>2014-5-28T4:26:42Z</time></trkpt>
<trkpt lat="46.2366315443" lon="7.2710148431"><ele></ele><time>2014-5-28T4:26:45Z</time></trkpt>
<trkpt lat="46.2367897946" lon="7.2708426788"><ele></ele><time>2014-5-28T4:26:48Z</time></trkpt>
<trkpt lat="46.2368214782" lon="7.2708134260"><ele></ele><time>2014-5-28T4:26:51Z</time></trkpt>
<trkpt lat="46.2368425168" lon="7.2707213089"><ele></ele><time>2014-5-28T4:26:54Z</time></trkpt>
<trkpt lat="46.2367563508" lon="7.2702382598"><ele></ele><time>2014-5-28T4:26:57Z</time></trkpt>
<trkpt lat="46.2366484758" lon="7.2697813623"><ele></ele><time>2014-5-28T4:27:0Z</time></trkpt>
<trkpt lat="46.2364588771" lon="7.2694708966"><ele></ele><time>2014-5-28T4:27:3Z</time></trkpt>
<trkpt lat="46.2362605613" lon="7.2691994067"><ele></ele><time>2014-5-28T4:27:6Z</time></trkpt>
<trkpt lat="46.2360684481" lon="7.2688623704"><ele></ele><time>2014-5-28T4:27:9Z</time></trkpt>
<trkpt lat="46.2358253729" lon="7.2684579436"><ele></ele><time>2014-5-28T4:27:12Z</time></trkpt>
<trkpt lat="46.2356351875" lon="7.2680444643"><ele></ele><time>2014-5-28T4:27:15Z</time></trkpt>
<trkpt lat="46.2355035078" lon="7.2676698770"><ele></ele><time>2014-5-28T4:27:18Z</time></trkpt>
<trkpt lat="46.2353291642" lon="7.2672603372"><ele></ele><time>2014-5-28T4:27:21Z</time></trkpt>
<trkpt lat="46.2351223826" lon="7.2668263223"><ele></ele><time>2014-5-28T4:27:24Z</time></trkpt>
<trkpt lat="46.2349497993" lon="7.2665116657"><ele></ele><time>2014-5-28T4:27:27Z</time></trkpt>
<trkpt lat="46.2347202189" lon="7.2661909740"><ele></ele><time>2014-5-28T4:27:30Z</time></trkpt>
<trkpt lat="46.2345666625" lon="7.2658604756"><ele></ele><time>2014-5-28T4:27:33Z</time></trkpt>
<trkpt lat="46.2344344798" lon="7.2654688731"><ele></ele><time>2014-5-28T4:27:36Z</time></trkpt>
<trkpt lat="46.2343173008" lon="7.2650694754"><ele></ele><time>2014-5-28T4:27:39Z</time></trkpt>
<trkpt lat="46.2342003733" lon="7.2647889331"><ele></ele><time>2014-5-28T4:27:42Z</time></trkpt>
<trkpt lat="46.2339910772" lon="7.2645107377"><ele></ele><time>2014-5-28T4:27:45Z</time></trkpt>
<trkpt lat="46.2337412965" lon="7.2641774733"><ele></ele><time>2014-5-28T4:27:48Z</time></trkpt>
<trkpt lat="46.2335628457" lon="7.2639065702"><ele></ele><time>2014-5-28T4:27:51Z</time></trkpt>
<trkpt lat="46.2335500214" lon="7.2638754733"><ele></ele><time>2014-5-28T4:27:54Z</time></trkpt>
<trkpt lat="46.2333946209" lon="7.2637183126"><ele></ele><time>2014-5-28T4:27:57Z</time></trkpt>
<trkpt lat="46.2332806271" lon="7.2636478208"><ele></ele><time>2014-5-28T4:28:0Z</time></trkpt>
<trkpt lat="46.2330646254" lon="7.2634794284"><ele></ele><time>2014-5-28T4:28:3Z</time></trkpt>
<trkpt lat="46.2329408247" lon="7.2633201722"><ele></ele><time>2014-5-28T4:28:6Z</time></trkpt>
<trkpt lat="46.2328700814" lon="7.2632583976"><ele></ele><time>2014-5-28T4:28:9Z</time></trkpt>
<trkpt lat="46.2327389047" lon="7.2630634345"><ele></ele><time>2014-5-28T4:28:12Z</time></trkpt>
<trkpt lat="46.2327105738" lon="7.2630188428"><ele></ele><time>2014-5-28T4:28:15Z</time></trkpt>
<trkpt lat="46.2325972505" lon="7.2627874184"><ele></ele><time>2014-5-28T4:28:18Z</time></trkpt>
<trkpt lat="46.2324582785" lon="7.2625541501"><ele></ele><time>2014-5-28T4:28:21Z</time></trkpt>
<trkpt lat="46.2322810013" lon="7.2624126635"><ele></ele><time>2014-5-28T4:28:24Z</time></trkpt>
<trkpt lat="46.2321452983" lon="7.2622525692"><ele></ele><time>2014-5-28T4:28:27Z</time></trkpt>
<trkpt lat="46.2319733016" lon="7.2620444465"><ele></ele><time>2014-5-28T4:28:30Z</time></trkpt>
<trkpt lat="46.2319104373" lon="7.2619316261"><ele></ele><time>2014-5-28T4:28:33Z</time></trkpt>
<trkpt lat="46.2318944279" lon="7.2618955001"><ele></ele><time>2014-5-28T4:28:36Z</time></trkpt>
<trkpt lat="46.2317789253" lon="7.2616757266"><ele></ele><time>2014-5-28T4:28:39Z</time></trkpt>
<trkpt lat="46.2317450624" lon="7.2616131976"><ele></ele><time>2014-5-28T4:28:42Z</time></trkpt>
<trkpt lat="46.2317042425" lon="7.2615372576"><ele></ele><time>2014-5-28T4:28:45Z</time></trkpt>
<trkpt lat="46.2316061743" lon="7.2613252793"><ele></ele><time>2014-5-28T4:28:48Z</time></trkpt>
<trkpt lat="46.2315722276" lon="7.2612422984"><ele></ele><time>2014-5-28T4:28:51Z</time></trkpt>
<trkpt lat="46.2314476725" lon="7.2609761730"><ele></ele><time>2014-5-28T4:28:54Z</time></trkpt>
<trkpt lat="46.2313455809" lon="7.2607527114"><ele></ele><time>2014-5-28T4:28:57Z</time></trkpt>
<trkpt lat="46.2312390469" lon="7.2605156712"><ele></ele><time>2014-5-28T4:29:0Z</time></trkpt>
<trkpt lat="46.2311823014" lon="7.2603803035"><ele></ele><time>2014-5-28T4:29:3Z</time></trkpt>
<trkpt lat="46.2310828082" lon="7.2600491345"><ele></ele><time>2014-5-28T4:29:6Z</time></trkpt>
<trkpt lat="46.2310017552" lon="7.2596685961"><ele></ele><time>2014-5-28T4:29:9Z</time></trkpt>
<trkpt lat="46.2309726700" lon="7.2591857985"><ele></ele><time>2014-5-28T4:29:12Z</time></trkpt>
<trkpt lat="46.2309788726" lon="7.2591506783"><ele></ele><time>2014-5-28T4:29:15Z</time></trkpt>
<trkpt lat="46.2310622726" lon="7.2590859700"><ele></ele><time>2014-5-28T4:29:18Z</time></trkpt>
<trkpt lat="46.2310906034" lon="7.2590957768"><ele></ele><time>2014-5-28T4:29:21Z</time></trkpt>
<trkpt lat="46.2311649509" lon="7.2591461521"><ele></ele><time>2014-5-28T4:29:24Z</time></trkpt>
<trkpt lat="46.2311657891" lon="7.2591447271"><ele></ele><time>2014-5-28T4:29:27Z</time></trkpt>
<trkpt lat="46.2311671302" lon="7.2591447271"><ele></ele><time>2014-5-28T4:29:30Z</time></trkpt>
<trkpt lat="46.2311646156" lon="7.2591655981"><ele></ele><time>2014-5-28T4:29:33Z</time></trkpt>
<trkpt lat="46.2311585806" lon="7.2591653466"><ele></ele><time>2014-5-28T4:29:36Z</time></trkpt>
<trkpt lat="46.2311825529" lon="7.2591049131"><ele></ele><time>2014-5-28T4:29:39Z</time></trkpt>
<trkpt lat="46.2313029170" lon="7.2590935975"><ele></ele><time>2014-5-28T4:29:42Z</time></trkpt>
<trkpt lat="46.2313030846" lon="7.2590956092"><ele></ele><time>2014-5-28T4:29:45Z</time></trkpt>
<trkpt lat="46.2313453294" lon="7.2590901610"><ele></ele><time>2014-5-28T4:29:48Z</time></trkpt>
<trkpt lat="46.2313629314" lon="7.2591132112"><ele></ele><time>2014-5-28T4:29:51Z</time></trkpt>
<trkpt lat="46.2315515243" lon="7.2590543702"><ele></ele><time>2014-5-28T4:29:54Z</time></trkpt>
<trkpt lat="46.2318012211" lon="7.2589931823"><ele></ele><time>2014-5-28T4:29:57Z</time></trkpt>
<trkpt lat="46.2320480682" lon="7.2589914221"><ele></ele><time>2014-5-28T4:30:0Z</time></trkpt>
<trkpt lat="46.2320978567" lon="7.2589853872"><ele></ele><time>2014-5-28T4:30:3Z</time></trkpt>
<trkpt lat="46.2322443724" lon="7.2588377818"><ele></ele><time>2014-5-28T4:30:6Z</time></trkpt>
<trkpt lat="46.2322763074" lon="7.2588221915"><ele></ele><time>2014-5-28T4:30:9Z</time></trkpt>
<trkpt lat="46.2322776485" lon="7.2587420605"><ele></ele><time>2014-5-28T4:30:12Z</time></trkpt>
<trkpt lat="46.2322785705" lon="7.2585598379"><ele></ele><time>2014-5-28T4:30:15Z</time></trkpt>
<trkpt lat="46.2322790734" lon="7.2585305013"><ele></ele><time>2014-5-28T4:30:18Z</time></trkpt>
<trkpt lat="46.2324635591" lon="7.2586074471"><ele></ele><time>2014-5-28T4:30:21Z</time></trkpt>
<trkpt lat="46.2324482203" lon="7.2586189304"><ele></ele><time>2014-5-28T4:30:24Z</time></trkpt>
<trkpt lat="46.2324433587" lon="7.2586253844"><ele></ele><time>2014-5-28T4:30:27Z</time></trkpt>
<trkpt lat="46.2325326260" lon="7.2586247139"><ele></ele><time>2014-5-28T4:30:30Z</time></trkpt>
<trkpt lat="46.2327855919" lon="7.2585660405"><ele></ele><time>2014-5-28T4:30:33Z</time></trkpt>
<trkpt lat="46.2330948841" lon="7.2584486939"><ele></ele><time>2014-5-28T4:30:36Z</time></trkpt>
<trkpt lat="46.2335445732" lon="7.2583605163"><ele></ele><time>2014-5-28T4:30:39Z</time></trkpt>
<trkpt lat="46.2338490877" lon="7.2584095504"><ele></ele><time>2014-5-28T4:30:42Z</time></trkpt>
<trkpt lat="46.2341764010" lon="7.2587849759"><ele></ele><time>2014-5-28T4:30:45Z</time></trkpt>
<trkpt lat="46.2344473042" lon="7.2589407954"><ele></ele><time>2014-5-28T4:30:48Z</time></trkpt>
<trkpt lat="46.2349261623" lon="7.2589998879"><ele></ele><time>2014-5-28T4:30:51Z</time></trkpt>
<trkpt lat="46.2353217881" lon="7.2588499356"><ele></ele><time>2014-5-28T4:30:54Z</time></trkpt>
<trkpt lat="46.2355874944" lon="7.2589452378"><ele></ele><time>2014-5-28T4:30:57Z</time></trkpt>
<trkpt lat="46.2357479241" lon="7.2590868920"><ele></ele><time>2014-5-28T4:31:0Z</time></trkpt>
<trkpt lat="46.2362942565" lon="7.2590415459"><ele></ele><time>2014-5-28T4:31:3Z</time></trkpt>
<trkpt lat="46.2365033012" lon="7.2590101976"><ele></ele><time>2014-5-28T4:31:6Z</time></trkpt>
<trkpt lat="46.2371287588" lon="7.2591265384"><ele></ele><time>2014-5-28T4:31:9Z</time></trkpt>
<trkpt lat="46.2377578206" lon="7.2591532767"><ele></ele><time>2014-5-28T4:31:12Z</time></trkpt>
<trkpt lat="46.2378312461" lon="7.2591477446"><ele></ele><time>2014-5-28T4:31:15Z</time></trkpt>
<trkpt lat="46.2382848747" lon="7.2593018878"><ele></ele><time>2014-5-28T4:31:18Z</time></trkpt>
<trkpt lat="46.2393819820" lon="7.2596397623"><ele></ele><time>2014-5-28T4:31:21Z</time></trkpt>
<trkpt lat="46.2399459165" lon="7.2596049774"><ele></ele><time>2014-5-28T4:31:24Z</time></trkpt>
<trkpt lat="46.2400977965" lon="7.2595311329"><ele></ele><time>2014-5-28T4:31:27Z</time></trkpt>
<trkpt lat="46.2405630760" lon="7.2592942603"><ele></ele><time>2014-5-28T4:31:30Z</time></trkpt>
<trkpt lat="46.2408998609" lon="7.2589347605"><ele></ele><time>2014-5-28T4:31:33Z</time></trkpt>
<trkpt lat="46.2413262483" lon="7.2587371990"><ele></ele><time>2014-5-28T4:31:36Z</time></trkpt>
<trkpt lat="46.2417377159" lon="7.2582345363"><ele></ele><time>2014-5-28T4:31:39Z</time></trkpt>
<trkpt lat="46.2418113090" lon="7.2581188660"><ele></ele><time>2014-5-28T4:31:42Z</time></trkpt>
<trkpt lat="46.2420454156" lon="7.2580074705"><ele></ele><time>2014-5-28T4:31:45Z</time></trkpt>
<trkpt lat="46.2424510997" lon="7.2581263259"><ele></ele><time>2014-5-28T4:31:48Z</time></trkpt>
<trkpt lat="46.2428285368" lon="7.2582635377"><ele></ele><time>2014-5-28T4:31:51Z</time></trkpt>
<trkpt lat="46.2431069836" lon="7.2582222987"><ele></ele><time>2014-5-28T4:31:54Z</time></trkpt>
<trkpt lat="46.2433883641" lon="7.2583827283"><ele></ele><time>2014-5-28T4:31:57Z</time></trkpt>
<trkpt lat="46.2435600255" lon="7.2584553156"><ele></ele><time>2014-5-28T4:32:0Z</time></trkpt>
<trkpt lat="46.2435725983" lon="7.2584559023"><ele></ele><time>2014-5-28T4:32:3Z</time></trkpt>
<trkpt lat="46.2437525578" lon="7.2583848238"><ele></ele><time>2014-5-28T4:32:6Z</time></trkpt>
<trkpt lat="46.2439267337" lon="7.2578651458"><ele></ele><time>2014-5-28T4:32:9Z</time></trkpt>
<trkpt lat="46.2440916058" lon="7.2571157198"><ele></ele><time>2014-5-28T4:32:12Z</time></trkpt>
<trkpt lat="46.2443344295" lon="7.2567199264"><ele></ele><time>2014-5-28T4:32:15Z</time></trkpt>
<trkpt lat="46.2445959449" lon="7.2563370410"><ele></ele><time>2014-5-28T4:32:18Z</time></trkpt>
<trkpt lat="46.2448213343" lon="7.2558934707"><ele></ele><time>2014-5-28T4:32:21Z</time></trkpt>
<trkpt lat="46.2450447120" lon="7.2552466393"><ele></ele><time>2014-5-28T4:32:24Z</time></trkpt>
<trkpt lat="46.2453460414" lon="7.2549821902"><ele></ele><time>2014-5-28T4:32:27Z</time></trkpt>
<trkpt lat="46.2457289267" lon="7.2547853831"><ele></ele><time>2014-5-28T4:32:30Z</time></trkpt>
<trkpt lat="46.2460928690" lon="7.2549145482"><ele></ele><time>2014-5-28T4:32:33Z</time></trkpt>
<trkpt lat="46.2465532869" lon="7.2556350566"><ele></ele><time>2014-5-28T4:32:36Z</time></trkpt>
<trkpt lat="46.2467477471" lon="7.2553797439"><ele></ele><time>2014-5-28T4:32:39Z</time></trkpt>
<trkpt lat="46.2468434684" lon="7.2549734730"><ele></ele><time>2014-5-28T4:32:42Z</time></trkpt>
<trkpt lat="46.2471245136" lon="7.2544320021"><ele></ele><time>2014-5-28T4:32:45Z</time></trkpt>
<trkpt lat="46.2474172935" lon="7.2540447582"><ele></ele><time>2014-5-28T4:32:48Z</time></trkpt>
<trkpt lat="46.2477691658" lon="7.2538933810"><ele></ele><time>2014-5-28T4:32:51Z</time></trkpt>
<trkpt lat="46.2480817270" lon="7.2539059538"><ele></ele><time>2014-5-28T4:32:54Z</time></trkpt>
<trkpt lat="46.2484543864" lon="7.2535416763"><ele></ele><time>2014-5-28T4:32:57Z</time></trkpt>
<trkpt lat="46.2489671074" lon="7.2527379356"><ele></ele><time>2014-5-28T4:33:0Z</time></trkpt>
<trkpt lat="46.2491497491" lon="7.2521911003"><ele></ele><time>2014-5-28T4:33:3Z</time></trkpt>
<trkpt lat="46.2491676863" lon="7.2518786229"><ele></ele><time>2014-5-28T4:33:6Z</time></trkpt>
<trkpt lat="46.2490616553" lon="7.2514796443"><ele></ele><time>2014-5-28T4:33:9Z</time></trkpt>
<trkpt lat="46.2491191551" lon="7.2510233335"><ele></ele><time>2014-5-28T4:33:12Z</time></trkpt>
<trkpt lat="46.2545082998" lon="7.2477978934"><ele></ele><time>2014-5-28T4:33:15Z</time></trkpt>
<trkpt lat="46.2549584080" lon="7.2482086904"><ele></ele><time>2014-5-28T4:33:18Z</time></trkpt>
<trkpt lat="46.2554293871" lon="7.2482459899"><ele></ele><time>2014-5-28T4:33:21Z</time></trkpt>
<trkpt lat="46.2555825245" lon="7.2481615841"><ele></ele><time>2014-5-28T4:33:24Z</time></trkpt>
<trkpt lat="46.2558855303" lon="7.2479118872"><ele></ele><time>2014-5-28T4:33:27Z</time></trkpt>
<trkpt lat="46.2561127637" lon="7.2478080355"><ele></ele><time>2014-5-28T4:33:30Z</time></trkpt>
<trkpt lat="46.2563512288" lon="7.2477805428"><ele></ele><time>2014-5-28T4:33:33Z</time></trkpt>
<trkpt lat="46.2567079626" lon="7.2475663852"><ele></ele><time>2014-5-28T4:33:36Z</time></trkpt>
<trkpt lat="46.2569282390" lon="7.2474653833"><ele></ele><time>2014-5-28T4:33:39Z</time></trkpt>
<trkpt lat="46.2574794330" lon="7.2473301832"><ele></ele><time>2014-5-28T4:33:42Z</time></trkpt>
<trkpt lat="46.2580563594" lon="7.2467212379"><ele></ele><time>2014-5-28T4:33:45Z</time></trkpt>
<trkpt lat="46.2582796533" lon="7.2465089243"><ele></ele><time>2014-5-28T4:33:48Z</time></trkpt>
<trkpt lat="46.2583731953" lon="7.2464485746"><ele></ele><time>2014-5-28T4:33:51Z</time></trkpt>
<trkpt lat="46.2586105708" lon="7.2462704591"><ele></ele><time>2014-5-28T4:33:54Z</time></trkpt>
<trkpt lat="46.2586720940" lon="7.2461593151"><ele></ele><time>2014-5-28T4:33:57Z</time></trkpt>
<trkpt lat="46.2587021012" lon="7.2458459996"><ele></ele><time>2014-5-28T4:34:0Z</time></trkpt>
<trkpt lat="46.2586421706" lon="7.2454376332"><ele></ele><time>2014-5-28T4:34:3Z</time></trkpt>
<trkpt lat="46.2588346191" lon="7.2446893808"><ele></ele><time>2014-5-28T4:34:6Z</time></trkpt>
<trkpt lat="46.2601859495" lon="7.2446118481"><ele></ele><time>2014-5-28T4:34:9Z</time></trkpt>
<trkpt lat="46.2603233289" lon="7.2446162906"><ele></ele><time>2014-5-28T4:34:12Z</time></trkpt>
<trkpt lat="46.2606109120" lon="7.2444583755"><ele></ele><time>2014-5-28T4:34:15Z</time></trkpt>
<trkpt lat="46.2607497163" lon="7.2444111854"><ele></ele><time>2014-5-28T4:34:18Z</time></trkpt>
<trkpt lat="46.2611985672" lon="7.2446155362"><ele></ele><time>2014-5-28T4:34:21Z</time></trkpt>
<trkpt lat="46.2613086216" lon="7.2449062206"><ele></ele><time>2014-5-28T4:34:24Z</time></trkpt>
<trkpt lat="46.2614035886" lon="7.2451316100"><ele></ele><time>2014-5-28T4:34:27Z</time></trkpt>
<trkpt lat="46.2615770102" lon="7.2453190293"><ele></ele><time>2014-5-28T4:34:30Z</time></trkpt>
<trkpt lat="46.2625002768" lon="7.2456462588"><ele></ele><time>2014-5-28T4:34:33Z</time></trkpt>
<trkpt lat="46.2632908579" lon="7.2458326723"><ele></ele><time>2014-5-28T4:34:36Z</time></trkpt>
<trkpt lat="46.2635494396" lon="7.2457721550"><ele></ele><time>2014-5-28T4:34:39Z</time></trkpt>
<trkpt lat="46.2641109433" lon="7.2455634456"><ele></ele><time>2014-5-28T4:34:42Z</time></trkpt>
<trkpt lat="46.2648591120" lon="7.2455647867"><ele></ele><time>2014-5-28T4:34:45Z</time></trkpt>
<trkpt lat="46.2651425879" lon="7.2456863243"><ele></ele><time>2014-5-28T4:34:48Z</time></trkpt>
<trkpt lat="46.2653352879" lon="7.2459413856"><ele></ele><time>2014-5-28T4:34:51Z</time></trkpt>
<trkpt lat="46.2655026745" lon="7.2460138053"><ele></ele><time>2014-5-28T4:34:54Z</time></trkpt>
<trkpt lat="46.2657150719" lon="7.2459144797"><ele></ele><time>2014-5-28T4:34:57Z</time></trkpt>
<trkpt lat="46.2659520283" lon="7.2456429899"><ele></ele><time>2014-5-28T4:35:0Z</time></trkpt>
<trkpt lat="46.2667583674" lon="7.2452410776"><ele></ele><time>2014-5-28T4:35:3Z</time></trkpt>
<trkpt lat="46.2671239860" lon="7.2451080568"><ele></ele><time>2014-5-28T4:35:6Z</time></trkpt>
<trkpt lat="46.2673077174" lon="7.2449617088"><ele></ele><time>2014-5-28T4:35:9Z</time></trkpt>
<trkpt lat="46.2674405705" lon="7.2447992675"><ele></ele><time>2014-5-28T4:35:12Z</time></trkpt>
<trkpt lat="46.2675161753" lon="7.2446821723"><ele></ele><time>2014-5-28T4:35:15Z</time></trkpt>
<trkpt lat="46.2676316779" lon="7.2443332337"><ele></ele><time>2014-5-28T4:35:18Z</time></trkpt>
<trkpt lat="46.2678770162" lon="7.2442103550"><ele></ele><time>2014-5-28T4:35:21Z</time></trkpt>
<trkpt lat="46.2681408785" lon="7.2443071660"><ele></ele><time>2014-5-28T4:35:24Z</time></trkpt>
<trkpt lat="46.2683262862" lon="7.2442790866"><ele></ele><time>2014-5-28T4:35:27Z</time></trkpt>
<trkpt lat="46.2688449584" lon="7.2436427325"><ele></ele><time>2014-5-28T4:35:30Z</time></trkpt>
<trkpt lat="46.2690954935" lon="7.2432619426"><ele></ele><time>2014-5-28T4:35:33Z</time></trkpt>
<trkpt lat="46.2692526542" lon="7.2429409157"><ele></ele><time>2014-5-28T4:35:36Z</time></trkpt>
<trkpt lat="46.2698293291" lon="7.2424417734"><ele></ele><time>2014-5-28T4:35:39Z</time></trkpt>
<trkpt lat="46.2699512020" lon="7.2422514204"><ele></ele><time>2014-5-28T4:35:42Z</time></trkpt>
<trkpt lat="46.2701957021" lon="7.2418929264"><ele></ele><time>2014-5-28T4:35:45Z</time></trkpt>
<trkpt lat="46.2706995383" lon="7.2410181072"><ele></ele><time>2014-5-28T4:35:48Z</time></trkpt>
<trkpt lat="46.2711537536" lon="7.2404975910"><ele></ele><time>2014-5-28T4:35:51Z</time></trkpt>
<trkpt lat="46.2711098325" lon="7.2400376759"><ele></ele><time>2014-5-28T4:35:54Z</time></trkpt>
<trkpt lat="46.2710599601" lon="7.2395680379"><ele></ele><time>2014-5-28T4:35:57Z</time></trkpt>
<trkpt lat="46.2712004408" lon="7.2390954662"><ele></ele><time>2014-5-28T4:36:0Z</time></trkpt>
<trkpt lat="46.2714763731" lon="7.2391210310"><ele></ele><time>2014-5-28T4:36:3Z</time></trkpt>
<trkpt lat="46.2717771158" lon="7.2392465919"><ele></ele><time>2014-5-28T4:36:6Z</time></trkpt>
<trkpt lat="46.2721496075" lon="7.2392206080"><ele></ele><time>2014-5-28T4:36:9Z</time></trkpt>
<trkpt lat="46.2725266255" lon="7.2388638742"><ele></ele><time>2014-5-28T4:36:12Z</time></trkpt>
<trkpt lat="46.2728364207" lon="7.2387044504"><ele></ele><time>2014-5-28T4:36:15Z</time></trkpt>
<trkpt lat="46.2732050568" lon="7.2387380619"><ele></ele><time>2014-5-28T4:36:18Z</time></trkpt>
<trkpt lat="46.2735253293" lon="7.2385489661"><ele></ele><time>2014-5-28T4:36:21Z</time></trkpt>
<trkpt lat="46.2737484556" lon="7.2382017877"><ele></ele><time>2014-5-28T4:36:24Z</time></trkpt>
<trkpt lat="46.2740207836" lon="7.2378526814"><ele></ele><time>2014-5-28T4:36:27Z</time></trkpt>
<trkpt lat="46.2743148208" lon="7.2375165671"><ele></ele><time>2014-5-28T4:36:30Z</time></trkpt>
<trkpt lat="46.2743825465" lon="7.2369704861"><ele></ele><time>2014-5-28T4:36:33Z</time></trkpt>
<trkpt lat="46.2742634397" lon="7.2362200543"><ele></ele><time>2014-5-28T4:36:36Z</time></trkpt>
<trkpt lat="46.2742697261" lon="7.2355891485"><ele></ele><time>2014-5-28T4:36:39Z</time></trkpt>
<trkpt lat="46.2744926848" lon="7.2354050819"><ele></ele><time>2014-5-28T4:36:42Z</time></trkpt>
<trkpt lat="46.2748096045" lon="7.2352496814"><ele></ele><time>2014-5-28T4:36:45Z</time></trkpt>
<trkpt lat="46.2751248479" lon="7.2351858113"><ele></ele><time>2014-5-28T4:36:48Z</time></trkpt>
<trkpt lat="46.2753509078" lon="7.2352626733"><ele></ele><time>2014-5-28T4:36:51Z</time></trkpt>
<trkpt lat="46.2755036261" lon="7.2354767472"><ele></ele><time>2014-5-28T4:36:54Z</time></trkpt>
<trkpt lat="46.2756219786" lon="7.2355066705"><ele></ele><time>2014-5-28T4:36:57Z</time></trkpt>
<trkpt lat="46.2758753635" lon="7.2353037447"><ele></ele><time>2014-5-28T4:37:0Z</time></trkpt>
<trkpt lat="46.2761574984" lon="7.2350283153"><ele></ele><time>2014-5-28T4:37:3Z</time></trkpt>
<trkpt lat="46.2764784414" lon="7.2346516326"><ele></ele><time>2014-5-28T4:37:6Z</time></trkpt>
<trkpt lat="46.2767687906" lon="7.2343166079"><ele></ele><time>2014-5-28T4:37:9Z</time></trkpt>
<trkpt lat="46.2770315632" lon="7.2341841739"><ele></ele><time>2014-5-28T4:37:12Z</time></trkpt>
<trkpt lat="46.2773162127" lon="7.2341399174"><ele></ele><time>2014-5-28T4:37:15Z</time></trkpt>
<trkpt lat="46.2777809054" lon="7.2339917254"><ele></ele><time>2014-5-28T4:37:18Z</time></trkpt>
<trkpt lat="46.2781823985" lon="7.2336578742"><ele></ele><time>2014-5-28T4:37:21Z</time></trkpt>
<trkpt lat="46.2785825506" lon="7.2336533479"><ele></ele><time>2014-5-28T4:37:24Z</time></trkpt>
<trkpt lat="46.2788918428" lon="7.2337639891"><ele></ele><time>2014-5-28T4:37:27Z</time></trkpt>
<trkpt lat="46.2788841315" lon="7.2341559269"><ele></ele><time>2014-5-28T4:37:30Z</time></trkpt>
<trkpt lat="46.2789921742" lon="7.2344615310"><ele></ele><time>2014-5-28T4:37:33Z</time></trkpt>
<trkpt lat="46.2792859599" lon="7.2344596032"><ele></ele><time>2014-5-28T4:37:36Z</time></trkpt>
<trkpt lat="46.2795969285" lon="7.2343139257"><ele></ele><time>2014-5-28T4:37:39Z</time></trkpt>
<trkpt lat="46.2797240820" lon="7.2338668350"><ele></ele><time>2014-5-28T4:37:42Z</time></trkpt>
<trkpt lat="46.2799296901" lon="7.2333448101"><ele></ele><time>2014-5-28T4:37:45Z</time></trkpt>
<trkpt lat="46.2802138366" lon="7.2329159919"><ele></ele><time>2014-5-28T4:37:48Z</time></trkpt>
<trkpt lat="46.2805889267" lon="7.2326797061"><ele></ele><time>2014-5-28T4:37:51Z</time></trkpt>
<trkpt lat="46.2809107080" lon="7.2324839048"><ele></ele><time>2014-5-28T4:37:54Z</time></trkpt>
<trkpt lat="46.2813652586" lon="7.2319562640"><ele></ele><time>2014-5-28T4:37:57Z</time></trkpt>
<trkpt lat="46.2818571925" lon="7.2314686049"><ele></ele><time>2014-5-28T4:38:0Z</time></trkpt>
<trkpt lat="46.2823984120" lon="7.2312839516"><ele></ele><time>2014-5-28T4:38:3Z</time></trkpt>
<trkpt lat="46.2829305790" lon="7.2309604101"><ele></ele><time>2014-5-28T4:38:6Z</time></trkpt>
<trkpt lat="46.2832827866" lon="7.2307907604"><ele></ele><time>2014-5-28T4:38:9Z</time></trkpt>
<trkpt lat="46.2836811785" lon="7.2307169158"><ele></ele><time>2014-5-28T4:38:12Z</time></trkpt>
<trkpt lat="46.2839894649" lon="7.2309785988"><ele></ele><time>2014-5-28T4:38:15Z</time></trkpt>
<trkpt lat="46.2843586039" lon="7.2313277051"><ele></ele><time>2014-5-28T4:38:18Z</time></trkpt>
<trkpt lat="46.2846374698" lon="7.2316453792"><ele></ele><time>2014-5-28T4:38:21Z</time></trkpt>
<trkpt lat="46.2848898489" lon="7.2319413442"><ele></ele><time>2014-5-28T4:38:24Z</time></trkpt>
<trkpt lat="46.2852356024" lon="7.2323050350"><ele></ele><time>2014-5-28T4:38:27Z</time></trkpt>
<trkpt lat="46.2855304778" lon="7.2322314419"><ele></ele><time>2014-5-28T4:38:30Z</time></trkpt>
<trkpt lat="46.2855958566" lon="7.2317950800"><ele></ele><time>2014-5-28T4:38:33Z</time></trkpt>
<trkpt lat="46.2856173981" lon="7.2311500926"><ele></ele><time>2014-5-28T4:38:36Z</time></trkpt>
<trkpt lat="46.2854717206" lon="7.2305726632"><ele></ele><time>2014-5-28T4:38:39Z</time></trkpt>
<trkpt lat="46.2854411267" lon="7.2299243230"><ele></ele><time>2014-5-28T4:38:42Z</time></trkpt>
<trkpt lat="46.2853990495" lon="7.2292674333"><ele></ele><time>2014-5-28T4:38:45Z</time></trkpt>
<trkpt lat="46.2852726504" lon="7.2287368588"><ele></ele><time>2014-5-28T4:38:48Z</time></trkpt>
<trkpt lat="46.2851505261" lon="7.2282683942"><ele></ele><time>2014-5-28T4:38:51Z</time></trkpt>
<trkpt lat="46.2851522025" lon="7.2277889494"><ele></ele><time>2014-5-28T4:38:54Z</time></trkpt>
<trkpt lat="46.2852169108" lon="7.2271929123"><ele></ele><time>2014-5-28T4:38:57Z</time></trkpt>
<trkpt lat="46.2853157334" lon="7.2266509384"><ele></ele><time>2014-5-28T4:39:0Z</time></trkpt>
<trkpt lat="46.2854889873" lon="7.2261563223"><ele></ele><time>2014-5-28T4:39:3Z</time></trkpt>
<trkpt lat="46.2856280431" lon="7.2256846726"><ele></ele><time>2014-5-28T4:39:6Z</time></trkpt>
<trkpt lat="46.2857150473" lon="7.2252056468"><ele></ele><time>2014-5-28T4:39:9Z</time></trkpt>
<trkpt lat="46.2858293764" lon="7.2247883957"><ele></ele><time>2014-5-28T4:39:12Z</time></trkpt>
<trkpt lat="46.2859585416" lon="7.2244552989"><ele></ele><time>2014-5-28T4:39:15Z</time></trkpt>
<trkpt lat="46.2859112676" lon="7.2243424784"><ele></ele><time>2014-5-28T4:39:18Z</time></trkpt>
<trkpt lat="46.2857676856" lon="7.2244510241"><ele></ele><time>2014-5-28T4:39:21Z</time></trkpt>
<trkpt lat="46.2854190823" lon="7.2247378528"><ele></ele><time>2014-5-28T4:39:24Z</time></trkpt>
<trkpt lat="46.2852386199" lon="7.2246105317"><ele></ele><time>2014-5-28T4:39:27Z</time></trkpt>
<trkpt lat="46.2850596663" lon="7.2244071867"><ele></ele><time>2014-5-28T4:39:30Z</time></trkpt>
<trkpt lat="46.2848037668" lon="7.2242611740"><ele></ele><time>2014-5-28T4:39:33Z</time></trkpt>
<trkpt lat="46.2845419999" lon="7.2243478429"><ele></ele><time>2014-5-28T4:39:36Z</time></trkpt>
<trkpt lat="46.2842114177" lon="7.2244676203"><ele></ele><time>2014-5-28T4:39:39Z</time></trkpt>
<trkpt lat="46.2839203980" lon="7.2241931129"><ele></ele><time>2014-5-28T4:39:42Z</time></trkpt>
<trkpt lat="46.2835841160" lon="7.2238635365"><ele></ele><time>2014-5-28T4:39:45Z</time></trkpt>
<trkpt lat="46.2833193317" lon="7.2236486245"><ele></ele><time>2014-5-28T4:39:48Z</time></trkpt>
<trkpt lat="46.2830097880" lon="7.2234018613"><ele></ele><time>2014-5-28T4:39:51Z</time></trkpt>
<trkpt lat="46.2828496099" lon="7.2229683492"><ele></ele><time>2014-5-28T4:39:54Z</time></trkpt>
<trkpt lat="46.2829463370" lon="7.2224393673"><ele></ele><time>2014-5-28T4:39:57Z</time></trkpt>
<trkpt lat="46.2829894200" lon="7.2219269816"><ele></ele><time>2014-5-28T4:40:0Z</time></trkpt>
<trkpt lat="46.2828327622" lon="7.2211605404"><ele></ele><time>2014-5-28T4:40:3Z</time></trkpt>
<trkpt lat="46.2827906851" lon="7.2203477472"><ele></ele><time>2014-5-28T4:40:6Z</time></trkpt>
<trkpt lat="46.2827622704" lon="7.2198449168"><ele></ele><time>2014-5-28T4:40:9Z</time></trkpt>
<trkpt lat="46.2827679701" lon="7.2192294337"><ele></ele><time>2014-5-28T4:40:12Z</time></trkpt>
<trkpt lat="46.2829016615" lon="7.2186630685"><ele></ele><time>2014-5-28T4:40:15Z</time></trkpt>
<trkpt lat="46.2826932035" lon="7.2182560433"><ele></ele><time>2014-5-28T4:40:18Z</time></trkpt>
<trkpt lat="46.2823318597" lon="7.2177289054"><ele></ele><time>2014-5-28T4:40:21Z</time></trkpt>
<trkpt lat="46.2818386685" lon="7.2171466146"><ele></ele><time>2014-5-28T4:40:24Z</time></trkpt>
<trkpt lat="46.2812714651" lon="7.2163946740"><ele></ele><time>2014-5-28T4:40:27Z</time></trkpt>
<trkpt lat="46.2808107119" lon="7.2158278897"><ele></ele><time>2014-5-28T4:40:30Z</time></trkpt>
<trkpt lat="46.2807442434" lon="7.2157536261"><ele></ele><time>2014-5-28T4:40:33Z</time></trkpt>
<trkpt lat="46.2803794630" lon="7.2153325193"><ele></ele><time>2014-5-28T4:40:36Z</time></trkpt>
<trkpt lat="46.2802786287" lon="7.2152836528"><ele></ele><time>2014-5-28T4:40:39Z</time></trkpt>
<trkpt lat="46.2802603561" lon="7.2152414080"><ele></ele><time>2014-5-28T4:40:42Z</time></trkpt>
<trkpt lat="46.2802811433" lon="7.2153286636"><ele></ele><time>2014-5-28T4:40:45Z</time></trkpt>
<trkpt lat="46.2802800536" lon="7.2154047713"><ele></ele><time>2014-5-28T4:40:48Z</time></trkpt>
<trkpt lat="46.2801840808" lon="7.2155282367"><ele></ele><time>2014-5-28T4:40:51Z</time></trkpt>
<trkpt lat="46.2801633775" lon="7.2155349422"><ele></ele><time>2014-5-28T4:40:54Z</time></trkpt>
<trkpt lat="46.2801083084" lon="7.2156101279"><ele></ele><time>2014-5-28T4:40:57Z</time></trkpt>
<trkpt lat="46.2799417600" lon="7.2156608384"><ele></ele><time>2014-5-28T4:41:0Z</time></trkpt>
<trkpt lat="46.2799149379" lon="7.2157170810"><ele></ele><time>2014-5-28T4:41:3Z</time></trkpt>
<trkpt lat="46.2798545882" lon="7.2157501057"><ele></ele><time>2014-5-28T4:41:6Z</time></trkpt>
<trkpt lat="46.2798482180" lon="7.2157642711"><ele></ele><time>2014-5-28T4:41:9Z</time></trkpt>
<trkpt lat="46.2798129302" lon="7.2157264687"><ele></ele><time>2014-5-28T4:41:12Z</time></trkpt>
<trkpt lat="46.2797930650" lon="7.2157355212"><ele></ele><time>2014-5-28T4:41:15Z</time></trkpt>
<trkpt lat="46.2797844317" lon="7.2157516982"><ele></ele><time>2014-5-28T4:41:18Z</time></trkpt>
<trkpt lat="46.2798037101" lon="7.2157439031"><ele></ele><time>2014-5-28T4:41:21Z</time></trkpt>
<trkpt lat="46.2798031233" lon="7.2157158237"><ele></ele><time>2014-5-28T4:41:24Z</time></trkpt>
<trkpt lat="46.2798033748" lon="7.2157078609"><ele></ele><time>2014-5-28T4:41:27Z</time></trkpt>
<trkpt lat="46.2797985133" lon="7.2156879958"><ele></ele><time>2014-5-28T4:41:30Z</time></trkpt>
<trkpt lat="46.2798065599" lon="7.2156679630"><ele></ele><time>2014-5-28T4:41:33Z</time></trkpt>
<trkpt lat="46.2797988486" lon="7.2156500258"><ele></ele><time>2014-5-28T4:41:36Z</time></trkpt>
<trkpt lat="46.2798209768" lon="7.2156260535"><ele></ele><time>2014-5-28T4:41:39Z</time></trkpt>
<trkpt lat="46.2798080686" lon="7.2156457510"><ele></ele><time>2014-5-28T4:41:42Z</time></trkpt>
<trkpt lat="46.2798028719" lon="7.2156597488"><ele></ele><time>2014-5-28T4:41:45Z</time></trkpt>
<trkpt lat="46.2797997706" lon="7.2156567313"><ele></ele><time>2014-5-28T4:41:48Z</time></trkpt>
<trkpt lat="46.2798266765" lon="7.2157028317"><ele></ele><time>2014-5-28T4:41:51Z</time></trkpt>
<trkpt lat="46.2798336335" lon="7.2157135606"><ele></ele><time>2014-5-28T4:41:54Z</time></trkpt>
<trkpt lat="46.2798829190" lon="7.2157343477"><ele></ele><time>2014-5-28T4:41:57Z</time></trkpt>
<trkpt lat="46.2798944023" lon="7.2157233674"><ele></ele><time>2014-5-28T4:42:0Z</time></trkpt>
<trkpt lat="46.2799249124" lon="7.2156911809"><ele></ele><time>2014-5-28T4:42:3Z</time></trkpt>
<trkpt lat="46.2799493875" lon="7.2156875767"><ele></ele><time>2014-5-28T4:42:6Z</time></trkpt>
<trkpt lat="46.2799924705" lon="7.2156951204"><ele></ele><time>2014-5-28T4:42:9Z</time></trkpt>
<trkpt lat="46.2801098172" lon="7.2156178392"><ele></ele><time>2014-5-28T4:42:12Z</time></trkpt>
<trkpt lat="46.2801349629" lon="7.2155998182"><ele></ele><time>2014-5-28T4:42:15Z</time></trkpt>
<trkpt lat="46.2802321929" lon="7.2155791987"><ele></ele><time>2014-5-28T4:42:18Z</time></trkpt>
<trkpt lat="46.2802533153" lon="7.2155587468"><ele></ele><time>2014-5-28T4:42:21Z</time></trkpt>
<trkpt lat="46.2802899443" lon="7.2155397199"><ele></ele><time>2014-5-28T4:42:24Z</time></trkpt>
<trkpt lat="46.2803533114" lon="7.2155776061"><ele></ele><time>2014-5-28T4:42:27Z</time></trkpt>
<trkpt lat="46.2805323489" lon="7.2157470044"><ele></ele><time>2014-5-28T4:42:30Z</time></trkpt>
<trkpt lat="46.2807775196" lon="7.2160036582"><ele></ele><time>2014-5-28T4:42:33Z</time></trkpt>
<trkpt lat="46.2810539547" lon="7.2163067479"><ele></ele><time>2014-5-28T4:42:36Z</time></trkpt>
<trkpt lat="46.2814482395" lon="7.2168015316"><ele></ele><time>2014-5-28T4:42:39Z</time></trkpt>
<trkpt lat="46.2817899697" lon="7.2172234766"><ele></ele><time>2014-5-28T4:42:42Z</time></trkpt>
<trkpt lat="46.2821472064" lon="7.2176750936"><ele></ele><time>2014-5-28T4:42:45Z</time></trkpt>
<trkpt lat="46.2825488672" lon="7.2182425484"><ele></ele><time>2014-5-28T4:42:48Z</time></trkpt>
<trkpt lat="46.2826651242" lon="7.2184149642"><ele></ele><time>2014-5-28T4:42:51Z</time></trkpt>
<trkpt lat="46.2827060279" lon="7.2186844423"><ele></ele><time>2014-5-28T4:42:54Z</time></trkpt>
<trkpt lat="46.2825878430" lon="7.2191768792"><ele></ele><time>2014-5-28T4:42:57Z</time></trkpt>
<trkpt lat="46.2825842388" lon="7.2194607742"><ele></ele><time>2014-5-28T4:43:0Z</time></trkpt>
<trkpt lat="46.2826409843" lon="7.2199066076"><ele></ele><time>2014-5-28T4:43:3Z</time></trkpt>
<trkpt lat="46.2827207800" lon="7.2212016955"><ele></ele><time>2014-5-28T4:43:6Z</time></trkpt>
<trkpt lat="46.2828382105" lon="7.2217003349"><ele></ele><time>2014-5-28T4:43:9Z</time></trkpt>
<trkpt lat="46.2827342749" lon="7.2225952707"><ele></ele><time>2014-5-28T4:43:12Z</time></trkpt>
<trkpt lat="46.2827997375" lon="7.2232515737"><ele></ele><time>2014-5-28T4:43:15Z</time></trkpt>
<trkpt lat="46.2830525357" lon="7.2235547472"><ele></ele><time>2014-5-28T4:43:18Z</time></trkpt>
<trkpt lat="46.2840422709" lon="7.2243545484"><ele></ele><time>2014-5-28T4:43:21Z</time></trkpt>
<trkpt lat="46.2843664829" lon="7.2244031634"><ele></ele><time>2014-5-28T4:43:24Z</time></trkpt>
<trkpt lat="46.2850336824" lon="7.2244181670"><ele></ele><time>2014-5-28T4:43:27Z</time></trkpt>
<trkpt lat="46.2851874065" lon="7.2245811112"><ele></ele><time>2014-5-28T4:43:30Z</time></trkpt>
<trkpt lat="46.2855838705" lon="7.2245692927"><ele></ele><time>2014-5-28T4:43:33Z</time></trkpt>
<trkpt lat="46.2856531050" lon="7.2244674526"><ele></ele><time>2014-5-28T4:43:36Z</time></trkpt>
<trkpt lat="46.2858665921" lon="7.2244628426"><ele></ele><time>2014-5-28T4:43:39Z</time></trkpt>
<trkpt lat="46.2858060747" lon="7.2246091068"><ele></ele><time>2014-5-28T4:43:42Z</time></trkpt>
<trkpt lat="46.2855174020" lon="7.2258623689"><ele></ele><time>2014-5-28T4:43:45Z</time></trkpt>
<trkpt lat="46.2852803618" lon="7.2266004793"><ele></ele><time>2014-5-28T4:43:48Z</time></trkpt>
<trkpt lat="46.2850481831" lon="7.2277472913"><ele></ele><time>2014-5-28T4:43:51Z</time></trkpt>
<trkpt lat="46.2850923557" lon="7.2283525486"><ele></ele><time>2014-5-28T4:43:54Z</time></trkpt>
<trkpt lat="46.2852863967" lon="7.2291830275"><ele></ele><time>2014-5-28T4:43:57Z</time></trkpt>
<trkpt lat="46.2853020709" lon="7.2301080544"><ele></ele><time>2014-5-28T4:44:0Z</time></trkpt>
<trkpt lat="46.2854410429" lon="7.2307646926"><ele></ele><time>2014-5-28T4:44:3Z</time></trkpt>
<trkpt lat="46.2855250295" lon="7.2319223173"><ele></ele><time>2014-5-28T4:44:6Z</time></trkpt>
<trkpt lat="46.2852403801" lon="7.2322622873"><ele></ele><time>2014-5-28T4:44:9Z</time></trkpt>
<trkpt lat="46.2851025816" lon="7.2321636323"><ele></ele><time>2014-5-28T4:44:12Z</time></trkpt>
<trkpt lat="46.2842560094" lon="7.2312046587"><ele></ele><time>2014-5-28T4:44:15Z</time></trkpt>
<trkpt lat="46.2837223336" lon="7.2306806222"><ele></ele><time>2014-5-28T4:44:18Z</time></trkpt>
<trkpt lat="46.2833273783" lon="7.2306625172"><ele></ele><time>2014-5-28T4:44:21Z</time></trkpt>
<trkpt lat="46.2822696660" lon="7.2312004678"><ele></ele><time>2014-5-28T4:44:24Z</time></trkpt>
<trkpt lat="46.2819611281" lon="7.2312970273"><ele></ele><time>2014-5-28T4:44:27Z</time></trkpt>
<trkpt lat="46.2816699408" lon="7.2314225882"><ele></ele><time>2014-5-28T4:44:30Z</time></trkpt>
<trkpt lat="46.2807834707" lon="7.2323609423"><ele></ele><time>2014-5-28T4:44:33Z</time></trkpt>
<trkpt lat="46.2803095579" lon="7.2326264810"><ele></ele><time>2014-5-28T4:44:36Z</time></trkpt>
<trkpt lat="46.2797548436" lon="7.2333962750"><ele></ele><time>2014-5-28T4:44:39Z</time></trkpt>
<trkpt lat="46.2796387542" lon="7.2338369116"><ele></ele><time>2014-5-28T4:44:42Z</time></trkpt>
<trkpt lat="46.2791971955" lon="7.2343991697"><ele></ele><time>2014-5-28T4:44:45Z</time></trkpt>
<trkpt lat="46.2788262963" lon="7.2342107445"><ele></ele><time>2014-5-28T4:44:48Z</time></trkpt>
<trkpt lat="46.2787640188" lon="7.2336118575"><ele></ele><time>2014-5-28T4:44:51Z</time></trkpt>
<trkpt lat="46.2786636874" lon="7.2335729655"><ele></ele><time>2014-5-28T4:44:54Z</time></trkpt>
<trkpt lat="46.2784416508" lon="7.2335378453"><ele></ele><time>2014-5-28T4:44:57Z</time></trkpt>
<trkpt lat="46.2779886927" lon="7.2336817626"><ele></ele><time>2014-5-28T4:45:0Z</time></trkpt>
<trkpt lat="46.2776691746" lon="7.2339761350"><ele></ele><time>2014-5-28T4:45:3Z</time></trkpt>
<trkpt lat="46.2772000395" lon="7.2341239080"><ele></ele><time>2014-5-28T4:45:6Z</time></trkpt>
<trkpt lat="46.2769868877" lon="7.2341110837"><ele></ele><time>2014-5-28T4:45:9Z</time></trkpt>
<trkpt lat="46.2765983026" lon="7.2343352158"><ele></ele><time>2014-5-28T4:45:12Z</time></trkpt>
<trkpt lat="46.2758583482" lon="7.2352542914"><ele></ele><time>2014-5-28T4:45:15Z</time></trkpt>
<trkpt lat="46.2754377443" lon="7.2353517730"><ele></ele><time>2014-5-28T4:45:18Z</time></trkpt>
<trkpt lat="46.2752300408" lon="7.2349466756"><ele></ele><time>2014-5-28T4:45:21Z</time></trkpt>
<trkpt lat="46.2750126142" lon="7.2349546384"><ele></ele><time>2014-5-28T4:45:24Z</time></trkpt>
<trkpt lat="46.2747707125" lon="7.2349887528"><ele></ele><time>2014-5-28T4:45:27Z</time></trkpt>
<trkpt lat="46.2743128091" lon="7.2352432273"><ele></ele><time>2014-5-28T4:45:30Z</time></trkpt>
<trkpt lat="46.2740905210" lon="7.2359744646"><ele></ele><time>2014-5-28T4:45:33Z</time></trkpt>
<trkpt lat="46.2742140703" lon="7.2366902791"><ele></ele><time>2014-5-28T4:45:36Z</time></trkpt>
<trkpt lat="46.2742833048" lon="7.2369622719"><ele></ele><time>2014-5-28T4:45:39Z</time></trkpt>
<trkpt lat="46.2741507869" lon="7.2375246976"><ele></ele><time>2014-5-28T4:45:42Z</time></trkpt>
<trkpt lat="46.2737660576" lon="7.2379811760"><ele></ele><time>2014-5-28T4:45:45Z</time></trkpt>
<trkpt lat="46.2735239044" lon="7.2383272648"><ele></ele><time>2014-5-28T4:45:48Z</time></trkpt>
<trkpt lat="46.2730727904" lon="7.2385860980"><ele></ele><time>2014-5-28T4:45:51Z</time></trkpt>
<trkpt lat="46.2728560343" lon="7.2385369800"><ele></ele><time>2014-5-28T4:45:54Z</time></trkpt>
<trkpt lat="46.2724573072" lon="7.2386954818"><ele></ele><time>2014-5-28T4:45:57Z</time></trkpt>
<trkpt lat="46.2716575898" lon="7.2391042672"><ele></ele><time>2014-5-28T4:46:0Z</time></trkpt>
<trkpt lat="46.2714460306" lon="7.2389965598"><ele></ele><time>2014-5-28T4:46:3Z</time></trkpt>
<trkpt lat="46.2709511630" lon="7.2391160857"><ele></ele><time>2014-5-28T4:46:6Z</time></trkpt>
<trkpt lat="46.2709405180" lon="7.2397281323"><ele></ele><time>2014-5-28T4:46:9Z</time></trkpt>
<trkpt lat="46.2710242532" lon="7.2402181383"><ele></ele><time>2014-5-28T4:46:12Z</time></trkpt>
<trkpt lat="46.2707821839" lon="7.2407759540"><ele></ele><time>2014-5-28T4:46:15Z</time></trkpt>
<trkpt lat="46.2706109416" lon="7.2408865951"><ele></ele><time>2014-5-28T4:46:18Z</time></trkpt>
<trkpt lat="46.2699667085" lon="7.2417038307"><ele></ele><time>2014-5-28T4:46:21Z</time></trkpt>
<trkpt lat="46.2696175184" lon="7.2424407676"><ele></ele><time>2014-5-28T4:46:24Z</time></trkpt>
<trkpt lat="46.2695348728" lon="7.2424961720"><ele></ele><time>2014-5-28T4:46:27Z</time></trkpt>
<trkpt lat="46.2693648878" lon="7.2425991856"><ele></ele><time>2014-5-28T4:46:30Z</time></trkpt>
<trkpt lat="46.2690822501" lon="7.2429593559"><ele></ele><time>2014-5-28T4:46:33Z</time></trkpt>
<trkpt lat="46.2683868874" lon="7.2440137994"><ele></ele><time>2014-5-28T4:46:36Z</time></trkpt>
<trkpt lat="46.2679061014" lon="7.2441115323"><ele></ele><time>2014-5-28T4:46:39Z</time></trkpt>
<trkpt lat="46.2677279022" lon="7.2440267075"><ele></ele><time>2014-5-28T4:46:42Z</time></trkpt>
<trkpt lat="46.2674240582" lon="7.2442632448"><ele></ele><time>2014-5-28T4:46:45Z</time></trkpt>
<trkpt lat="46.2672997545" lon="7.2446672525"><ele></ele><time>2014-5-28T4:46:48Z</time></trkpt>
<trkpt lat="46.2671913765" lon="7.2448260896"><ele></ele><time>2014-5-28T4:46:51Z</time></trkpt>
<trkpt lat="46.2664919905" lon="7.2451670654"><ele></ele><time>2014-5-28T4:46:54Z</time></trkpt>
<trkpt lat="46.2660330813" lon="7.2453655489"><ele></ele><time>2014-5-28T4:46:57Z</time></trkpt>
<trkpt lat="46.2658144813" lon="7.2455749288"><ele></ele><time>2014-5-28T4:47:0Z</time></trkpt>
<trkpt lat="46.2653187755" lon="7.2457387112"><ele></ele><time>2014-5-28T4:47:3Z</time></trkpt>
<trkpt lat="46.2652716693" lon="7.2456812114"><ele></ele><time>2014-5-28T4:47:6Z</time></trkpt>
<trkpt lat="46.2650865130" lon="7.2454290837"><ele></ele><time>2014-5-28T4:47:9Z</time></trkpt>
<trkpt lat="46.2648406718" lon="7.2453086358"><ele></ele><time>2014-5-28T4:47:12Z</time></trkpt>
<trkpt lat="46.2642805092" lon="7.2452782094"><ele></ele><time>2014-5-28T4:47:15Z</time></trkpt>
<trkpt lat="46.2640020624" lon="7.2452993318"><ele></ele><time>2014-5-28T4:47:18Z</time></trkpt>
<trkpt lat="46.2634348590" lon="7.2455149144"><ele></ele><time>2014-5-28T4:47:21Z</time></trkpt>
<trkpt lat="46.2625001930" lon="7.2453372180"><ele></ele><time>2014-5-28T4:47:24Z</time></trkpt>
<trkpt lat="46.2622478139" lon="7.2453140002"><ele></ele><time>2014-5-28T4:47:27Z</time></trkpt>
<trkpt lat="46.2614395469" lon="7.2449334618"><ele></ele><time>2014-5-28T4:47:30Z</time></trkpt>
<trkpt lat="46.2611322664" lon="7.2443779930"><ele></ele><time>2014-5-28T4:47:33Z</time></trkpt>
<trkpt lat="46.2606727704" lon="7.2441958543"><ele></ele><time>2014-5-28T4:47:36Z</time></trkpt>
<trkpt lat="46.2605351396" lon="7.2442734707"><ele></ele><time>2014-5-28T4:47:39Z</time></trkpt>
<trkpt lat="46.2603224069" lon="7.2444068268"><ele></ele><time>2014-5-28T4:47:42Z</time></trkpt>
<trkpt lat="46.2599154655" lon="7.2442894801"><ele></ele><time>2014-5-28T4:47:45Z</time></trkpt>
<trkpt lat="46.2594270520" lon="7.2442442179"><ele></ele><time>2014-5-28T4:47:48Z</time></trkpt>
<trkpt lat="46.2585368101" lon="7.2448286042"><ele></ele><time>2014-5-28T4:47:51Z</time></trkpt>
<trkpt lat="46.2582515739" lon="7.2452567518"><ele></ele><time>2014-5-28T4:47:54Z</time></trkpt>
<trkpt lat="46.2583256699" lon="7.2458074428"><ele></ele><time>2014-5-28T4:47:57Z</time></trkpt>
<trkpt lat="46.2581395078" lon="7.2461513523"><ele></ele><time>2014-5-28T4:48:0Z</time></trkpt>
<trkpt lat="46.2577121146" lon="7.2463700362"><ele></ele><time>2014-5-28T4:48:3Z</time></trkpt>
<trkpt lat="46.2572840508" lon="7.2468609642"><ele></ele><time>2014-5-28T4:48:6Z</time></trkpt>
<trkpt lat="46.2571175024" lon="7.2469830047"><ele></ele><time>2014-5-28T4:48:9Z</time></trkpt>
<trkpt lat="46.2568779476" lon="7.2470159456"><ele></ele><time>2014-5-28T4:48:12Z</time></trkpt>
<trkpt lat="46.2566421647" lon="7.2468933184"><ele></ele><time>2014-5-28T4:48:15Z</time></trkpt>
<trkpt lat="46.2564068846" lon="7.2468954977"><ele></ele><time>2014-5-28T4:48:18Z</time></trkpt>
<trkpt lat="46.2561995164" lon="7.2470280994"><ele></ele><time>2014-5-28T4:48:21Z</time></trkpt>
<trkpt lat="46.2559981830" lon="7.2471733578"><ele></ele><time>2014-5-28T4:48:24Z</time></trkpt>
<trkpt lat="46.2557310518" lon="7.2471267544"><ele></ele><time>2014-5-28T4:48:27Z</time></trkpt>
<trkpt lat="46.2554655969" lon="7.2472180333"><ele></ele><time>2014-5-28T4:48:30Z</time></trkpt>
<trkpt lat="46.2551628426" lon="7.2475815564"><ele></ele><time>2014-5-28T4:48:33Z</time></trkpt>
<trkpt lat="46.2547540572" lon="7.2475155909"><ele></ele><time>2014-5-28T4:48:36Z</time></trkpt>
<trkpt lat="46.2543860916" lon="7.2476208676"><ele></ele><time>2014-5-28T4:48:39Z</time></trkpt>
<trkpt lat="46.2542545795" lon="7.2476507910"><ele></ele><time>2014-5-28T4:48:42Z</time></trkpt>
<trkpt lat="46.2539243326" lon="7.2478367854"><ele></ele><time>2014-5-28T4:48:45Z</time></trkpt>
<trkpt lat="46.2490768265" lon="7.2509082500"><ele></ele><time>2014-5-28T4:48:48Z</time></trkpt>
<trkpt lat="46.2489757407" lon="7.2510725353"><ele></ele><time>2014-5-28T4:48:51Z</time></trkpt>
<trkpt lat="46.2488921732" lon="7.2515330371"><ele></ele><time>2014-5-28T4:48:54Z</time></trkpt>
<trkpt lat="46.2489830330" lon="7.2516756970"><ele></ele><time>2014-5-28T4:48:57Z</time></trkpt>
<trkpt lat="46.2490634155" lon="7.2521931957"><ele></ele><time>2014-5-28T4:49:0Z</time></trkpt>
<trkpt lat="46.2490213383" lon="7.2525416315"><ele></ele><time>2014-5-28T4:49:3Z</time></trkpt>
<trkpt lat="46.2489957735" lon="7.2527028155"><ele></ele><time>2014-5-28T4:49:6Z</time></trkpt>
<trkpt lat="46.2489034049" lon="7.2529768199"><ele></ele><time>2014-5-28T4:49:9Z</time></trkpt>
<trkpt lat="46.2488076836" lon="7.2531500738"><ele></ele><time>2014-5-28T4:49:12Z</time></trkpt>
<trkpt lat="46.2485847250" lon="7.2533635609"><ele></ele><time>2014-5-28T4:49:15Z</time></trkpt>
<trkpt lat="46.2483799551" lon="7.2537380643"><ele></ele><time>2014-5-28T4:49:18Z</time></trkpt>
<trkpt lat="46.2479535677" lon="7.2538653854"><ele></ele><time>2014-5-28T4:49:21Z</time></trkpt>
<trkpt lat="46.2476861849" lon="7.2538646311"><ele></ele><time>2014-5-28T4:49:24Z</time></trkpt>
<trkpt lat="46.2473547645" lon="7.2542092949"><ele></ele><time>2014-5-28T4:49:27Z</time></trkpt>
<trkpt lat="46.2470567040" lon="7.2547135502"><ele></ele><time>2014-5-28T4:49:30Z</time></trkpt>
<trkpt lat="46.2468819413" lon="7.2551768180"><ele></ele><time>2014-5-28T4:49:33Z</time></trkpt>
<trkpt lat="46.2468420435" lon="7.2553662490"><ele></ele><time>2014-5-28T4:49:36Z</time></trkpt>
<trkpt lat="46.2465349305" lon="7.2553852759"><ele></ele><time>2014-5-28T4:49:39Z</time></trkpt>
<trkpt lat="46.2464051787" lon="7.2551543545"><ele></ele><time>2014-5-28T4:49:42Z</time></trkpt>
<trkpt lat="46.2463287357" lon="7.2549900692"><ele></ele><time>2014-5-28T4:49:45Z</time></trkpt>
<trkpt lat="46.2459933758" lon="7.2547037434"><ele></ele><time>2014-5-28T4:49:48Z</time></trkpt>
<trkpt lat="46.2453759648" lon="7.2547847126"><ele></ele><time>2014-5-28T4:49:51Z</time></trkpt>
<trkpt lat="46.2450554408" lon="7.2550678533"><ele></ele><time>2014-5-28T4:49:54Z</time></trkpt>
<trkpt lat="46.2447675224" lon="7.2556936461"><ele></ele><time>2014-5-28T4:49:57Z</time></trkpt>
<trkpt lat="46.2446454819" lon="7.2560884338"><ele></ele><time>2014-5-28T4:50:0Z</time></trkpt>
<trkpt lat="46.2440877501" lon="7.2570393607"><ele></ele><time>2014-5-28T4:50:3Z</time></trkpt>
<trkpt lat="46.2439097185" lon="7.2579841688"><ele></ele><time>2014-5-28T4:50:6Z</time></trkpt>
<trkpt lat="46.2436058745" lon="7.2584231291"><ele></ele><time>2014-5-28T4:50:9Z</time></trkpt>
<trkpt lat="46.2432339694" lon="7.2582072951"><ele></ele><time>2014-5-28T4:50:12Z</time></trkpt>
<trkpt lat="46.2426972762" lon="7.2581975721"><ele></ele><time>2014-5-28T4:50:15Z</time></trkpt>
<trkpt lat="46.2425861321" lon="7.2581671458"><ele></ele><time>2014-5-28T4:50:18Z</time></trkpt>
<trkpt lat="46.2421437353" lon="7.2579788882"><ele></ele><time>2014-5-28T4:50:21Z</time></trkpt>
<trkpt lat="46.2417779490" lon="7.2580788005"><ele></ele><time>2014-5-28T4:50:24Z</time></trkpt>
<trkpt lat="46.2416103948" lon="7.2583714966"><ele></ele><time>2014-5-28T4:50:27Z</time></trkpt>
<trkpt lat="46.2413190398" lon="7.2586239595"><ele></ele><time>2014-5-28T4:50:30Z</time></trkpt>
<trkpt lat="46.2411470432" lon="7.2586554755"><ele></ele><time>2014-5-28T4:50:33Z</time></trkpt>
<trkpt lat="46.2408145331" lon="7.2589055914"><ele></ele><time>2014-5-28T4:50:36Z</time></trkpt>
<trkpt lat="46.2400902528" lon="7.2594217490"><ele></ele><time>2014-5-28T4:50:39Z</time></trkpt>
<trkpt lat="46.2397243828" lon="7.2595741320"><ele></ele><time>2014-5-28T4:50:42Z</time></trkpt>
<trkpt lat="46.2385702785" lon="7.2593467310"><ele></ele><time>2014-5-28T4:50:45Z</time></trkpt>
<trkpt lat="46.2380329985" lon="7.2591068409"><ele></ele><time>2014-5-28T4:50:48Z</time></trkpt>
<trkpt lat="46.2376306672" lon="7.2590884846"><ele></ele><time>2014-5-28T4:50:51Z</time></trkpt>
<trkpt lat="46.2367490586" lon="7.2589972056"><ele></ele><time>2014-5-28T4:50:54Z</time></trkpt>
<trkpt lat="46.2364297081" lon="7.2589159012"><ele></ele><time>2014-5-28T4:50:57Z</time></trkpt>
<trkpt lat="46.2361584697" lon="7.2589888237"><ele></ele><time>2014-5-28T4:51:0Z</time></trkpt>
<trkpt lat="46.2357458286" lon="7.2589783464"><ele></ele><time>2014-5-28T4:51:3Z</time></trkpt>
<trkpt lat="46.2352032680" lon="7.2587256320"><ele></ele><time>2014-5-28T4:51:6Z</time></trkpt>
<trkpt lat="46.2347255833" lon="7.2589484230"><ele></ele><time>2014-5-28T4:51:9Z</time></trkpt>
<trkpt lat="46.2345434446" lon="7.2589361854"><ele></ele><time>2014-5-28T4:51:12Z</time></trkpt>
<trkpt lat="46.2343568634" lon="7.2588760871"><ele></ele><time>2014-5-28T4:51:15Z</time></trkpt>
<trkpt lat="46.2339070067" lon="7.2583882604"><ele></ele><time>2014-5-28T4:51:18Z</time></trkpt>
<trkpt lat="46.2338111177" lon="7.2583517153"><ele></ele><time>2014-5-28T4:51:21Z</time></trkpt>
<trkpt lat="46.2334864866" lon="7.2582605202"><ele></ele><time>2014-5-28T4:51:24Z</time></trkpt>
<trkpt lat="46.2327451911" lon="7.2583907750"><ele></ele><time>2014-5-28T4:51:27Z</time></trkpt>
<trkpt lat="46.2326410878" lon="7.2584227938"><ele></ele><time>2014-5-28T4:51:30Z</time></trkpt>
<trkpt lat="46.2323060632" lon="7.2586374544"><ele></ele><time>2014-5-28T4:51:33Z</time></trkpt>
<trkpt lat="46.2317793444" lon="7.2590039112"><ele></ele><time>2014-5-28T4:51:36Z</time></trkpt>
<trkpt lat="46.2313193455" lon="7.2590640094"><ele></ele><time>2014-5-28T4:51:39Z</time></trkpt>
<trkpt lat="46.2312216125" lon="7.2590529453"><ele></ele><time>2014-5-28T4:51:42Z</time></trkpt>
<trkpt lat="46.2310180999" lon="7.2590275481"><ele></ele><time>2014-5-28T4:51:45Z</time></trkpt>
<trkpt lat="46.2308086362" lon="7.2594080027"><ele></ele><time>2014-5-28T4:51:48Z</time></trkpt>
<trkpt lat="46.2308317702" lon="7.2595481481"><ele></ele><time>2014-5-28T4:51:51Z</time></trkpt>
<trkpt lat="46.2309740111" lon="7.2601467837"><ele></ele><time>2014-5-28T4:51:54Z</time></trkpt>
<trkpt lat="46.2317821104" lon="7.2617522534"><ele></ele><time>2014-5-28T4:51:57Z</time></trkpt>
<trkpt lat="46.2318669353" lon="7.2619219869"><ele></ele><time>2014-5-28T4:52:0Z</time></trkpt>
<trkpt lat="46.2323918939" lon="7.2626549006"><ele></ele><time>2014-5-28T4:52:3Z</time></trkpt>
<trkpt lat="46.2327963207" lon="7.2633231059"><ele></ele><time>2014-5-28T4:52:6Z</time></trkpt>
<trkpt lat="46.2337217666" lon="7.2643377353"><ele></ele><time>2014-5-28T4:52:9Z</time></trkpt>
<trkpt lat="46.2341316417" lon="7.2649656236"><ele></ele><time>2014-5-28T4:52:12Z</time></trkpt>
<trkpt lat="46.2345380802" lon="7.2660754714"><ele></ele><time>2014-5-28T4:52:15Z</time></trkpt>
<trkpt lat="46.2354450859" lon="7.2677391954"><ele></ele><time>2014-5-28T4:52:18Z</time></trkpt>
<trkpt lat="46.2361011375" lon="7.2691559047"><ele></ele><time>2014-5-28T4:52:21Z</time></trkpt>
<trkpt lat="46.2365069892" lon="7.2697977070"><ele></ele><time>2014-5-28T4:52:24Z</time></trkpt>
<trkpt lat="46.2367959972" lon="7.2704680916"><ele></ele><time>2014-5-28T4:52:27Z</time></trkpt>
<trkpt lat="46.2366578635" lon="7.2710572556"><ele></ele><time>2014-5-28T4:52:30Z</time></trkpt>
<trkpt lat="46.2364687677" lon="7.2712255642"><ele></ele><time>2014-5-28T4:52:33Z</time></trkpt>
<trkpt lat="46.2362869643" lon="7.2712132428"><ele></ele><time>2014-5-28T4:52:36Z</time></trkpt>
<trkpt lat="46.2361922488" lon="7.2710795514"><ele></ele><time>2014-5-28T4:52:39Z</time></trkpt>
<trkpt lat="46.2360622454" lon="7.2707923874"><ele></ele><time>2014-5-28T4:52:42Z</time></trkpt>
<trkpt lat="46.2357843854" lon="7.2706944030"><ele></ele><time>2014-5-28T4:52:45Z</time></trkpt>
<trkpt lat="46.2357616704" lon="7.2708010208"><ele></ele><time>2014-5-28T4:52:48Z</time></trkpt>
<trkpt lat="46.2357172463" lon="7.2711497080"><ele></ele><time>2014-5-28T4:52:51Z</time></trkpt>
<trkpt lat="46.2357285619" lon="7.2716430668"><ele></ele><time>2014-5-28T4:52:54Z</time></trkpt>
<trkpt lat="46.2357817031" lon="7.2720280476"><ele></ele><time>2014-5-28T4:52:57Z</time></trkpt>
<trkpt lat="46.2358142249" lon="7.2728042956"><ele></ele><time>2014-5-28T4:53:0Z</time></trkpt>
<trkpt lat="46.2357843015" lon="7.2734495346"><ele></ele><time>2014-5-28T4:53:3Z</time></trkpt>
<trkpt lat="46.2354094628" lon="7.2730859276"><ele></ele><time>2014-5-28T4:53:6Z</time></trkpt>
<trkpt lat="46.2353745941" lon="7.2729832493"><ele></ele><time>2014-5-28T4:53:9Z</time></trkpt>
<trkpt lat="46.2352835666" lon="7.2726157866"><ele></ele><time>2014-5-28T4:53:12Z</time></trkpt>
<trkpt lat="46.2350587640" lon="7.2721596435"><ele></ele><time>2014-5-28T4:53:15Z</time></trkpt>
<trkpt lat="46.2348344643" lon="7.2716681287"><ele></ele><time>2014-5-28T4:53:18Z</time></trkpt>
<trkpt lat="46.2347153574" lon="7.2710959800"><ele></ele><time>2014-5-28T4:53:21Z</time></trkpt>
<trkpt lat="46.2344822567" lon="7.2710194532"><ele></ele><time>2014-5-28T4:53:24Z</time></trkpt>
<trkpt lat="46.2344843522" lon="7.2711316869"><ele></ele><time>2014-5-28T4:53:27Z</time></trkpt>
<trkpt lat="46.2344582006" lon="7.2717626765"><ele></ele><time>2014-5-28T4:53:30Z</time></trkpt>
<trkpt lat="46.2344667502" lon="7.2726084944"><ele></ele><time>2014-5-28T4:53:33Z</time></trkpt>
<trkpt lat="46.2348161079" lon="7.2734609339"><ele></ele><time>2014-5-28T4:53:36Z</time></trkpt>
<trkpt lat="46.2349762022" lon="7.2739128023"><ele></ele><time>2014-5-28T4:53:39Z</time></trkpt>
<trkpt lat="46.2354139891" lon="7.2746909782"><ele></ele><time>2014-5-28T4:53:42Z</time></trkpt>
<trkpt lat="46.2357980479" lon="7.2748404276"><ele></ele><time>2014-5-28T4:53:45Z</time></trkpt>
<trkpt lat="46.2359584775" lon="7.2752358858"><ele></ele><time>2014-5-28T4:53:48Z</time></trkpt>
<trkpt lat="46.2360885646" lon="7.2759454977"><ele></ele><time>2014-5-28T4:53:51Z</time></trkpt>
<trkpt lat="46.2361031491" lon="7.2761208471"><ele></ele><time>2014-5-28T4:53:54Z</time></trkpt>
<trkpt lat="46.2361212540" lon="7.2766579594"><ele></ele><time>2014-5-28T4:53:57Z</time></trkpt>
<trkpt lat="46.2362727150" lon="7.2773438506"><ele></ele><time>2014-5-28T4:54:0Z</time></trkpt>
<trkpt lat="46.2366048899" lon="7.2781882435"><ele></ele><time>2014-5-28T4:54:3Z</time></trkpt>
<trkpt lat="46.2370809820" lon="7.2800076194"><ele></ele><time>2014-5-28T4:54:6Z</time></trkpt>
<trkpt lat="46.2370285112" lon="7.2806101106"><ele></ele><time>2014-5-28T4:54:9Z</time></trkpt>
<trkpt lat="46.2367677502" lon="7.2811328899"><ele></ele><time>2014-5-28T4:54:12Z</time></trkpt>
<trkpt lat="46.2367582787" lon="7.2817596048"><ele></ele><time>2014-5-28T4:54:15Z</time></trkpt>
<trkpt lat="46.2369543314" lon="7.2828681115"><ele></ele><time>2014-5-28T4:54:18Z</time></trkpt>
<trkpt lat="46.2369677424" lon="7.2830968536"><ele></ele><time>2014-5-28T4:54:21Z</time></trkpt>
<trkpt lat="46.2369725201" lon="7.2831590474"><ele></ele><time>2014-5-28T4:54:24Z</time></trkpt>
<trkpt lat="46.2369792257" lon="7.2831727099"><ele></ele><time>2014-5-28T4:54:27Z</time></trkpt>
<trkpt lat="46.2370250747" lon="7.2835985944"><ele></ele><time>2014-5-28T4:54:30Z</time></trkpt>
<trkpt lat="46.2369888648" lon="7.2850779165"><ele></ele><time>2014-5-28T4:54:33Z</time></trkpt>
<trkpt lat="46.2369625457" lon="7.2855023760"><ele></ele><time>2014-5-28T4:54:36Z</time></trkpt>
<trkpt lat="46.2371297646" lon="7.2864636965"><ele></ele><time>2014-5-28T4:54:39Z</time></trkpt>
<trkpt lat="46.2377220299" lon="7.2877738718"><ele></ele><time>2014-5-28T4:54:42Z</time></trkpt>
<trkpt lat="46.2378988881" lon="7.2884880099"><ele></ele><time>2014-5-28T4:54:45Z</time></trkpt>
<trkpt lat="46.2379500177" lon="7.2888022475"><ele></ele><time>2014-5-28T4:54:48Z</time></trkpt>
<trkpt lat="46.2379573938" lon="7.2890017368"><ele></ele><time>2014-5-28T4:54:51Z</time></trkpt>
<trkpt lat="46.2379703019" lon="7.2892363463"><ele></ele><time>2014-5-28T4:54:54Z</time></trkpt>
<trkpt lat="46.2380343396" lon="7.2896506637"><ele></ele><time>2014-5-28T4:54:57Z</time></trkpt>
<trkpt lat="46.2380511872" lon="7.2898973431"><ele></ele><time>2014-5-28T4:55:0Z</time></trkpt>
<trkpt lat="46.2380281370" lon="7.2900425177"><ele></ele><time>2014-5-28T4:55:3Z</time></trkpt>
<trkpt lat="46.2380542886" lon="7.2906082962"><ele></ele><time>2014-5-28T4:55:6Z</time></trkpt>
<trkpt lat="46.2381099444" lon="7.2908057738"><ele></ele><time>2014-5-28T4:55:9Z</time></trkpt>
<trkpt lat="46.2383883074" lon="7.2914332431"><ele></ele><time>2014-5-28T4:55:12Z</time></trkpt>
<trkpt lat="46.2383326516" lon="7.2921330482"><ele></ele><time>2014-5-28T4:55:15Z</time></trkpt>
<trkpt lat="46.2380248681" lon="7.2923899535"><ele></ele><time>2014-5-28T4:55:18Z</time></trkpt>
<trkpt lat="46.2377590779" lon="7.2925420851"><ele></ele><time>2014-5-28T4:55:21Z</time></trkpt>
<trkpt lat="46.2372404896" lon="7.2934588976"><ele></ele><time>2014-5-28T4:55:24Z</time></trkpt>
<trkpt lat="46.2372816447" lon="7.2946597729"><ele></ele><time>2014-5-28T4:55:27Z</time></trkpt>
<trkpt lat="46.2373339478" lon="7.2948342841"><ele></ele><time>2014-5-28T4:55:30Z</time></trkpt>
<trkpt lat="46.2380497623" lon="7.2963803262"><ele></ele><time>2014-5-28T4:55:33Z</time></trkpt>
<trkpt lat="46.2384451367" lon="7.2968794685"><ele></ele><time>2014-5-28T4:55:36Z</time></trkpt>
<trkpt lat="46.2382192444" lon="7.2968026903"><ele></ele><time>2014-5-28T4:55:39Z</time></trkpt>
<trkpt lat="46.2373317685" lon="7.2960693575"><ele></ele><time>2014-5-28T4:55:42Z</time></trkpt>
<trkpt lat="46.2371170241" lon="7.2957899887"><ele></ele><time>2014-5-28T4:55:45Z</time></trkpt>
<trkpt lat="46.2362795044" lon="7.2944785561"><ele></ele><time>2014-5-28T4:55:48Z</time></trkpt>
<trkpt lat="46.2350571714" lon="7.2930802032"><ele></ele><time>2014-5-28T4:55:51Z</time></trkpt>
<trkpt lat="46.2341729645" lon="7.2917809244"><ele></ele><time>2014-5-28T4:55:54Z</time></trkpt>
<trkpt lat="46.2336536217" lon="7.2904917877"><ele></ele><time>2014-5-28T4:55:57Z</time></trkpt>
<trkpt lat="46.2334341835" lon="7.2899087425"><ele></ele><time>2014-5-28T4:56:0Z</time></trkpt>
<trkpt lat="46.2332828902" lon="7.2894893121"><ele></ele><time>2014-5-28T4:56:3Z</time></trkpt>
<trkpt lat="46.2332735024" lon="7.2896851972"><ele></ele><time>2014-5-28T4:56:6Z</time></trkpt>
<trkpt lat="46.2333340198" lon="7.2898695990"><ele></ele><time>2014-5-28T4:56:9Z</time></trkpt>
<trkpt lat="46.2334945332" lon="7.2904205415"><ele></ele><time>2014-5-28T4:56:12Z</time></trkpt>
<trkpt lat="46.2337840442" lon="7.2919719480"><ele></ele><time>2014-5-28T4:56:15Z</time></trkpt>
<trkpt lat="46.2342206575" lon="7.2938742209"><ele></ele><time>2014-5-28T4:56:18Z</time></trkpt>
<trkpt lat="46.2342990283" lon="7.2943317052"><ele></ele><time>2014-5-28T4:56:21Z</time></trkpt>
<trkpt lat="46.2342466414" lon="7.2958436329"><ele></ele><time>2014-5-28T4:56:24Z</time></trkpt>
<trkpt lat="46.2344108429" lon="7.2965104971"><ele></ele><time>2014-5-28T4:56:27Z</time></trkpt>
<trkpt lat="46.2343614735" lon="7.2969803028"><ele></ele><time>2014-5-28T4:56:30Z</time></trkpt>
<trkpt lat="46.2342458870" lon="7.2971823905"><ele></ele><time>2014-5-28T4:56:33Z</time></trkpt>
<trkpt lat="46.2341312226" lon="7.2977872286"><ele></ele><time>2014-5-28T4:56:36Z</time></trkpt>
<trkpt lat="46.2341618165" lon="7.2980639152"><ele></ele><time>2014-5-28T4:56:39Z</time></trkpt>
<trkpt lat="46.2343423627" lon="7.2988007683"><ele></ele><time>2014-5-28T4:56:42Z</time></trkpt>
<trkpt lat="46.2344147824" lon="7.2992789559"><ele></ele><time>2014-5-28T4:56:45Z</time></trkpt>
<trkpt lat="46.2344352342" lon="7.2997393738"><ele></ele><time>2014-5-28T4:56:48Z</time></trkpt>
<trkpt lat="46.2345768046" lon="7.3008154426"><ele></ele><time>2014-5-28T4:56:51Z</time></trkpt>
<trkpt lat="46.2344461307" lon="7.3010317795"><ele></ele><time>2014-5-28T4:56:54Z</time></trkpt>
<trkpt lat="46.2344087474" lon="7.3009718489"><ele></ele><time>2014-5-28T4:56:57Z</time></trkpt>
<trkpt lat="46.2342243455" lon="7.3006027099"><ele></ele><time>2014-5-28T4:57:0Z</time></trkpt>
<trkpt lat="46.2340040691" lon="7.3006784823"><ele></ele><time>2014-5-28T4:57:3Z</time></trkpt>
<trkpt lat="46.2341273669" lon="7.3010694142"><ele></ele><time>2014-5-28T4:57:6Z</time></trkpt>
<trkpt lat="46.2340375129" lon="7.3010826577"><ele></ele><time>2014-5-28T4:57:9Z</time></trkpt>
<trkpt lat="46.2334402185" lon="7.3004335631"><ele></ele><time>2014-5-28T4:57:12Z</time></trkpt>
<trkpt lat="46.2333968002" lon="7.3003758956"><ele></ele><time>2014-5-28T4:57:15Z</time></trkpt>
<trkpt lat="46.2329442613" lon="7.3004271090"><ele></ele><time>2014-5-28T4:57:18Z</time></trkpt>
<trkpt lat="46.2326816563" lon="7.3004987743"><ele></ele><time>2014-5-28T4:57:21Z</time></trkpt>
<trkpt lat="46.2325143535" lon="7.3002888914"><ele></ele><time>2014-5-28T4:57:24Z</time></trkpt>
<trkpt lat="46.2325159460" lon="7.2998465784"><ele></ele><time>2014-5-28T4:57:27Z</time></trkpt>
<trkpt lat="46.2323952466" lon="7.2991828155"><ele></ele><time>2014-5-28T4:57:30Z</time></trkpt>
<trkpt lat="46.2318282947" lon="7.2984244209"><ele></ele><time>2014-5-28T4:57:33Z</time></trkpt>
<trkpt lat="46.2309272401" lon="7.2975827940"><ele></ele><time>2014-5-28T4:57:36Z</time></trkpt>
<trkpt lat="46.2307678163" lon="7.2973306663"><ele></ele><time>2014-5-28T4:57:39Z</time></trkpt>
<trkpt lat="46.2304010242" lon="7.2971258126"><ele></ele><time>2014-5-28T4:57:42Z</time></trkpt>
<trkpt lat="46.2298789993" lon="7.2966216411"><ele></ele><time>2014-5-28T4:57:45Z</time></trkpt>
<trkpt lat="46.2297630776" lon="7.2964254208"><ele></ele><time>2014-5-28T4:57:48Z</time></trkpt>
<trkpt lat="46.2294353452" lon="7.2960887197"><ele></ele><time>2014-5-28T4:57:51Z</time></trkpt>
<trkpt lat="46.2290952075" lon="7.2955824528"><ele></ele><time>2014-5-28T4:57:54Z</time></trkpt>
<trkpt lat="46.2287891842" lon="7.2952625994"><ele></ele><time>2014-5-28T4:57:57Z</time></trkpt>
<trkpt lat="46.2286259048" lon="7.2951564845"><ele></ele><time>2014-5-28T4:58:0Z</time></trkpt>
<trkpt lat="46.2284184527" lon="7.2948204540"><ele></ele><time>2014-5-28T4:58:3Z</time></trkpt>
<trkpt lat="46.2283721846" lon="7.2945143469"><ele></ele><time>2014-5-28T4:58:6Z</time></trkpt>
<trkpt lat="46.2284970749" lon="7.2936010547"><ele></ele><time>2014-5-28T4:58:9Z</time></trkpt>
<trkpt lat="46.2285772059" lon="7.2933568899"><ele></ele><time>2014-5-28T4:58:12Z</time></trkpt>
<trkpt lat="46.2285107374" lon="7.2927347850"><ele></ele><time>2014-5-28T4:58:15Z</time></trkpt>
<trkpt lat="46.2279732898" lon="7.2915682755"><ele></ele><time>2014-5-28T4:58:18Z</time></trkpt>
<trkpt lat="46.2276134547" lon="7.2901900392"><ele></ele><time>2014-5-28T4:58:21Z</time></trkpt>
<trkpt lat="46.2276098505" lon="7.2891036607"><ele></ele><time>2014-5-28T4:58:24Z</time></trkpt>
<trkpt lat="46.2276277039" lon="7.2888935264"><ele></ele><time>2014-5-28T4:58:27Z</time></trkpt>
<trkpt lat="46.2274362613" lon="7.2875708621"><ele></ele><time>2014-5-28T4:58:30Z</time></trkpt>
<trkpt lat="46.2273502629" lon="7.2864015866"><ele></ele><time>2014-5-28T4:58:33Z</time></trkpt>
<trkpt lat="46.2273482513" lon="7.2862136643"><ele></ele><time>2014-5-28T4:58:36Z</time></trkpt>
<trkpt lat="46.2273227703" lon="7.2860375606"><ele></ele><time>2014-5-28T4:58:39Z</time></trkpt>
<trkpt lat="46.2271730695" lon="7.2851542756"><ele></ele><time>2014-5-28T4:58:42Z</time></trkpt>
<trkpt lat="46.2272762507" lon="7.2847985476"><ele></ele><time>2014-5-28T4:58:45Z</time></trkpt>
<trkpt lat="46.2272361852" lon="7.2845165804"><ele></ele><time>2014-5-28T4:58:48Z</time></trkpt>
<trkpt lat="46.2270317506" lon="7.2835130151"><ele></ele><time>2014-5-28T4:58:51Z</time></trkpt>
<trkpt lat="46.2269552238" lon="7.2831584606"><ele></ele><time>2014-5-28T4:58:54Z</time></trkpt>
<trkpt lat="46.2269101292" lon="7.2829140443"><ele></ele><time>2014-5-28T4:58:57Z</time></trkpt>
<trkpt lat="46.2268055230" lon="7.2820026800"><ele></ele><time>2014-5-28T4:59:0Z</time></trkpt>
<trkpt lat="46.2267352827" lon="7.2812741250"><ele></ele><time>2014-5-28T4:59:3Z</time></trkpt>
<trkpt lat="46.2266355380" lon="7.2806281317"><ele></ele><time>2014-5-28T4:59:6Z</time></trkpt>
<trkpt lat="46.2265841570" lon="7.2803575639"><ele></ele><time>2014-5-28T4:59:9Z</time></trkpt>
<trkpt lat="46.2265562452" lon="7.2802525386"><ele></ele><time>2014-5-28T4:59:12Z</time></trkpt>
<trkpt lat="46.2260853499" lon="7.2799572442"><ele></ele><time>2014-5-28T4:59:15Z</time></trkpt>
<trkpt lat="46.2258562725" lon="7.2798225470"><ele></ele><time>2014-5-28T4:59:18Z</time></trkpt>
<trkpt lat="46.2256175559" lon="7.2797077987"><ele></ele><time>2014-5-28T4:59:21Z</time></trkpt>
<trkpt lat="46.2256078329" lon="7.2797173541"><ele></ele><time>2014-5-28T4:59:24Z</time></trkpt>
<trkpt lat="46.2255537696" lon="7.2797975689"><ele></ele><time>2014-5-28T4:59:27Z</time></trkpt>
<trkpt lat="46.2253974471" lon="7.2796946391"><ele></ele><time>2014-5-28T4:59:30Z</time></trkpt>
<trkpt lat="46.2253308110" lon="7.2796411626"><ele></ele><time>2014-5-28T4:59:33Z</time></trkpt>
<trkpt lat="46.2247930281" lon="7.2793665715"><ele></ele><time>2014-5-28T4:59:36Z</time></trkpt>
<trkpt lat="46.2247131485" lon="7.2793365642"><ele></ele><time>2014-5-28T4:59:39Z</time></trkpt>
<trkpt lat="46.2246369570" lon="7.2795928828"><ele></ele><time>2014-5-28T4:59:42Z</time></trkpt>
<trkpt lat="46.2246645335" lon="7.2797192819"><ele></ele><time>2014-5-28T4:59:45Z</time></trkpt>
<trkpt lat="46.2245931197" lon="7.2798189428"><ele></ele><time>2014-5-28T4:59:48Z</time></trkpt>
<trkpt lat="46.2244637031" lon="7.2800241318"><ele></ele><time>2014-5-28T4:59:51Z</time></trkpt>
<trkpt lat="46.2244696543" lon="7.2800550610"><ele></ele><time>2014-5-28T4:59:54Z</time></trkpt>
<trkpt lat="46.2244878430" lon="7.2800657060"><ele></ele><time>2014-5-28T4:59:57Z</time></trkpt>
</trkseg></trk></gpx>